NOAA Web Site Link Tides and Currents Home Page Transparent placeholder image

PORTS® Data Listing: 8594900 Washington, DC

CO-OPS RAW PORTS DATA

************************      PRELIMINARY DATA      ************************** 

     THIS RAW DATA HAS NOT BEEN SUBJECT TO THE NATIONAL OCEAN SERVICE'S        
     QUALITY CONTROL OR QUALITY ASSURANCE PROCEDURES AND DOES NOT MEET         
     THE CRITERIA AND STANDARDS OF OFFICIAL NATIONAL OCEAN SERVICE             
     DATA.  IT IS RELEASED FOR LIMITED PUBLIC USE AS PRELIMINARY DATA TO       
     BE USED ONLY WITH APPROPRIATE CAUTION.                                    

************************      PRELIMINARY DATA      ************************** 


       CD   -   Calendar date
       T    -   Time
       TZ   -   Timezone
       PW   -   Predicted water level (feet above MLLW)
       OW   -   Observed water level (feet above MLLW)
       WS   -   Wind speed (knots)
       WD   -   Wind direction (degrees true)
       WG   -   Wind gust (knots)
       AT   -   Air temperature (degrees farenheit)
       WT   -   Water temperature (degrees farenheit)
       AP   -   Air pressure (millibars)
       SA   -   Salinty (PSU - Practical Salinity Units)
       SG   -   Specific gravity
       RH   -   Relative humidity
       AG   -   Air gap (feet)
       VI   -   Visibility (nautical miles)

       ** NOTE **
       A variable that has its data fields filled with "9"s, indicates that
       data was not collected for that sample period.
       **********


STATION NAME: Washington (8594900)
****************************************************************************************************
    CD       T    TZ    PW     OW    WS   WD   WG    AT    WT    AP    SA    SG     RH    AG   VI
****************************************************************************************************
2019/02/19 09:18 EST    2.20   2.51    6  347   14  31.8  41.0 1038.2 -9.9 -9.999 -99.9 -99.99 -9.99
2019/02/19 09:24 EST    2.14   2.46    5  333   13  32.0  40.8 1038.2 -9.9 -9.999 -99.9 -99.99 -9.99
2019/02/19 09:30 EST    2.08   2.40    6  336   10  32.2  40.8 1038.3 -9.9 -9.999 -99.9 -99.99 -9.99
2019/02/19 09:36 EST    2.01   2.34    6    1   10  32.9  40.8 1038.4 -9.9 -9.999 -99.9 -99.99 -9.99
2019/02/19 09:42 EST    1.95   2.28    6  313   11  32.5  40.8 1038.4 -9.9 -9.999 -99.9 -99.99 -9.99
2019/02/19 09:48 EST    1.88   2.22    6  318   11  32.4  40.8 1038.3 -9.9 -9.999 -99.9 -99.99 -9.99
2019/02/19 09:54 EST    1.82   2.17    8  299   13  32.5  40.8 1038.3 -9.9 -9.999 -99.9 -99.99 -9.99
2019/02/19 10:00 EST    1.75   2.12    9  318   11  32.5  40.8 1038.2 -9.9 -9.999 -99.9 -99.99 -9.99
2019/02/19 10:06 EST    1.68   2.05    9  299   10  32.2  40.8 1038.4 -9.9 -9.999 -99.9 -99.99 -9.99
2019/02/19 10:12 EST    1.62   1.99    8  285   12  32.5  40.8 1038.5 -9.9 -9.999 -99.9 -99.99 -9.99
2019/02/19 10:18 EST    1.55   1.93    8  294   11  32.9  40.8 1038.5 -9.9 -9.999 -99.9 -99.99 -9.99
2019/02/19 10:24 EST    1.48   1.88    8  303   11  33.1  40.8 1038.4 -9.9 -9.999 -99.9 -99.99 -9.99
2019/02/19 10:30 EST    1.42   1.83    4  313   11  34.0  40.8 1038.6 -9.9 -9.999 -99.9 -99.99 -9.99
2019/02/19 10:36 EST    1.35   1.77    6  300    9  33.6  40.8 1038.6 -9.9 -9.999 -99.9 -99.99 -9.99
2019/02/19 10:42 EST    1.29   1.71    7  294   10  34.0  40.8 1038.5 -9.9 -9.999 -99.9 -99.99 -9.99
2019/02/19 10:48 EST    1.23   1.66    5  299   10  33.6  40.8 1038.4 -9.9 -9.999 -99.9 -99.99 -9.99
2019/02/19 10:54 EST    1.16   1.61    5  297   10  34.0  40.8 1038.5 -9.9 -9.999 -99.9 -99.99 -9.99
2019/02/19 11:00 EST    1.10   1.55    6  306    8  33.8  40.8 1038.4 -9.9 -9.999 -99.9 -99.99 -9.99
2019/02/19 11:06 EST    1.04   1.50    5  350   11  35.2  40.8 1038.4 -9.9 -9.999 -99.9 -99.99 -9.99
2019/02/19 11:12 EST    0.98   1.45    5    3    8  34.9  40.8 1038.2 -9.9 -9.999 -99.9 -99.99 -9.99
2019/02/19 11:18 EST    0.91   1.40    4  304    9  35.4  40.8 1038.2 -9.9 -9.999 -99.9 -99.99 -9.99
2019/02/19 11:24 EST    0.85   1.36    5  287    9  34.7  40.8 1038.2 -9.9 -9.999 -99.9 -99.99 -9.99
2019/02/19 11:30 EST    0.80   1.31    5  307    9  34.9  40.8 1038.1 -9.9 -9.999 -99.9 -99.99 -9.99
2019/02/19 11:36 EST    0.74   1.26    6  284    9  35.6  40.8 1038.0 -9.9 -9.999 -99.9 -99.99 -9.99
2019/02/19 11:42 EST    0.68   1.21    6  298    9  35.4  40.8 1038.2 -9.9 -9.999 -99.9 -99.99 -9.99
2019/02/19 11:48 EST    0.62   1.16    6  274    9  35.2  40.8 1038.3 -9.9 -9.999 -99.9 -99.99 -9.99
2019/02/19 11:54 EST    0.57   1.11    5  294    7  36.0  40.8 1038.1 -9.9 -9.999 -99.9 -99.99 -9.99
2019/02/19 12:00 EST    0.51   1.07    4  301    9  36.3  40.8 1038.1 -9.9 -9.999 -99.9 -99.99 -9.99
2019/02/19 12:06 EST    0.46   1.02    7  290    9  36.0  40.8 1038.0 -9.9 -9.999 -99.9 -99.99 -9.99
2019/02/19 12:12 EST    0.41   0.98    7  300    8  36.1  40.8 1037.9 -9.9 -9.999 -99.9 -99.99 -9.99
2019/02/19 12:18 EST    0.36   0.93    5  325    9  36.5  40.8 1037.8 -9.9 -9.999 -99.9 -99.99 -9.99
2019/02/19 12:24 EST    0.31   0.89    5  293   12  36.7  40.8 1037.5 -9.9 -9.999 -99.9 -99.99 -9.99
2019/02/19 12:30 EST    0.26   0.85    7  291    8  36.3  40.8 1037.5 -9.9 -9.999 -99.9 -99.99 -9.99
2019/02/19 12:36 EST    0.21   0.82    4  312   11  36.9  40.8 1037.4 -9.9 -9.999 -99.9 -99.99 -9.99
2019/02/19 12:42 EST    0.17   0.77    6  320   12  37.4  40.8 1037.4 -9.9 -9.999 -99.9 -99.99 -9.99
2019/02/19 12:48 EST    0.12   0.73    6  343   12  37.4  40.8 1037.3 -9.9 -9.999 -99.9 -99.99 -9.99
2019/02/19 12:54 EST    0.08   0.69    9  296   13  37.4  40.8 1037.2 -9.9 -9.999 -99.9 -99.99 -9.99
2019/02/19 13:00 EST    0.04   0.66    6  284   11  37.4  40.8 1036.9 -9.9 -9.999 -99.9 -99.99 -9.99
2019/02/19 13:06 EST   -0.00   0.62    7  305   11  37.8  40.8 1036.8 -9.9 -9.999 -99.9 -99.99 -9.99
2019/02/19 13:12 EST   -0.04   0.59    8  293   14  37.8  40.8 1036.7 -9.9 -9.999 -99.9 -99.99 -9.99
2019/02/19 13:18 EST   -0.08   0.55    8  332   12  38.5  40.8 1036.7 -9.9 -9.999 -99.9 -99.99 -9.99
2019/02/19 13:24 EST   -0.11   0.51    8  311   11  37.9  40.8 1036.6 -9.9 -9.999 -99.9 -99.99 -9.99
2019/02/19 13:30 EST   -0.15   0.48    5  308    8  38.3  40.8 1036.4 -9.9 -9.999 -99.9 -99.99 -9.99
2019/02/19 13:36 EST   -0.18   0.45    6  306   12  38.7  40.8 1036.7 -9.9 -9.999 -99.9 -99.99 -9.99
2019/02/19 13:42 EST   -0.21   0.42    8  300   10  38.3  40.8 1036.7 -9.9 -9.999 -99.9 -99.99 -9.99
2019/02/19 13:48 EST   -0.24   0.38    6  283   14  38.7  40.8 1036.6 -9.9 -9.999 -99.9 -99.99 -9.99
2019/02/19 13:54 EST   -0.27   0.35    9  317   11  38.3  40.8 1036.5 -9.9 -9.999 -99.9 -99.99 -9.99
2019/02/19 14:00 EST   -0.29   0.32    4  322   11  38.7  40.8 1036.4 -9.9 -9.999 -99.9 -99.99 -9.99
2019/02/19 14:06 EST   -0.31   0.30    6  317    9  38.5  41.0 1036.4 -9.9 -9.999 -99.9 -99.99 -9.99
2019/02/19 14:12 EST   -0.33   0.27    5  308   10  39.0  41.0 1036.3 -9.9 -9.999 -99.9 -99.99 -9.99
2019/02/19 14:18 EST   -0.34   0.23    6  280    9  38.5  41.0 1036.4 -9.9 -9.999 -99.9 -99.99 -9.99
2019/02/19 14:24 EST   -0.35   0.21    5  270    9  39.0  41.0 1036.4 -9.9 -9.999 -99.9 -99.99 -9.99
2019/02/19 14:30 EST   -0.36   0.19    6  328    9  39.2  41.0 1036.3 -9.9 -9.999 -99.9 -99.99 -9.99
2019/02/19 14:36 EST   -0.36   0.17    5  296    7  38.8  41.0 1036.1 -9.9 -9.999 -99.9 -99.99 -9.99
2019/02/19 14:42 EST   -0.36   0.14    6  291   11  39.0  41.0 1036.0 -9.9 -9.999 -99.9 -99.99 -9.99
2019/02/19 14:48 EST   -0.35   0.12    5  305    9  39.0  41.0 1035.9 -9.9 -9.999 -99.9 -99.99 -9.99
2019/02/19 14:54 EST   -0.33   0.11    6  331    9  39.6  41.0 1035.8 -9.9 -9.999 -99.9 -99.99 -9.99
2019/02/19 15:00 EST   -0.31   0.10    3  316    8  39.4  41.0 1035.8 -9.9 -9.999 -99.9 -99.99 -9.99
2019/02/19 15:06 EST   -0.28   0.08    5  282   10  39.0  41.0 1035.7 -9.9 -9.999 -99.9 -99.99 -9.99
2019/02/19 15:12 EST   -0.25   0.07    7  287    8  39.4  41.0 1035.6 -9.9 -9.999 -99.9 -99.99 -9.99
2019/02/19 15:18 EST   -0.21   0.06    6  272    7  39.6  41.0 1035.7 -9.9 -9.999 -99.9 -99.99 -9.99
2019/02/19 15:24 EST   -0.16   0.06    5  356   10  40.8  41.0 1035.6 -9.9 -9.999 -99.9 -99.99 -9.99
2019/02/19 15:30 EST   -0.11   0.06    4  328    8  41.4  41.0 1035.6 -9.9 -9.999 -99.9 -99.99 -9.99
2019/02/19 15:36 EST   -0.05   0.08    5  313    7  40.6  41.0 1035.5 -9.9 -9.999 -99.9 -99.99 -9.99
2019/02/19 15:42 EST    0.02   0.10    3  307    6  41.0  41.0 1035.4 -9.9 -9.999 -99.9 -99.99 -9.99
2019/02/19 15:48 EST    0.09   0.14    4  318    4  41.2  41.0 1035.4 -9.9 -9.999 -99.9 -99.99 -9.99
2019/02/19 15:54 EST    0.17   0.19    2   20    9  41.4  41.0 1035.4 -9.9 -9.999 -99.9 -99.99 -9.99
2019/02/19 16:00 EST    0.26   0.25 -999 -999 -999 -99.9 -99.9 -999.9 -9.9 -9.999 -99.9 -99.99 -9.99
2019/02/19 16:06 EST    0.35   0.32    7  290    8  39.9  41.0 1036.0 -9.9 -9.999 -99.9 -99.99 -9.99
2019/02/19 16:12 EST    0.44   0.41    3  288    4  40.1  41.0 1035.9 -9.9 -9.999 -99.9 -99.99 -9.99
2019/02/19 16:18 EST    0.54   0.52    3  273    5  39.9  41.0 1035.8 -9.9 -9.999 -99.9 -99.99 -9.99
2019/02/19 16:24 EST    0.64   0.63    4  293    4  40.1  41.0 1035.7 -9.9 -9.999 -99.9 -99.99 -9.99
2019/02/19 16:30 EST    0.75   0.74    2  344    8  40.3  41.0 1035.8 -9.9 -9.999 -99.9 -99.99 -9.99
2019/02/19 16:36 EST    0.86   0.84    7  300    9  40.1  41.0 1035.9 -9.9 -9.999 -99.9 -99.99 -9.99
2019/02/19 16:42 EST    0.97   0.96    5  270    8  39.7  41.0 1035.9 -9.9 -9.999 -99.9 -99.99 -9.99
2019/02/19 16:48 EST    1.08   1.07    4  337    6  39.9  41.0 1036.0 -9.9 -9.999 -99.9 -99.99 -9.99
2019/02/19 16:54 EST    1.20   1.19    4  323    7  39.9  41.0 1035.9 -9.9 -9.999 -99.9 -99.99 -9.99
2019/02/19 17:00 EST    1.31   1.30    5  308    7  39.7  41.0 1036.1 -9.9 -9.999 -99.9 -99.99 -9.99
2019/02/19 17:06 EST    1.42   1.42    4  289    5  39.7  41.0 1036.3 -9.9 -9.999 -99.9 -99.99 -9.99
2019/02/19 17:12 EST    1.53   1.54    4  278    6  39.6  41.0 1036.4 -9.9 -9.999 -99.9 -99.99 -9.99
2019/02/19 17:18 EST    1.64   1.65    5  284    5  39.6  41.0 1036.4 -9.9 -9.999 -99.9 -99.99 -9.99
2019/02/19 17:24 EST    1.75   1.76    3  290    5  39.7  41.0 1036.6 -9.9 -9.999 -99.9 -99.99 -9.99
2019/02/19 17:30 EST    1.85   1.86    3  313    6  39.6  41.0 1036.6 -9.9 -9.999 -99.9 -99.99 -9.99
2019/02/19 17:36 EST    1.95   1.94    5  292    7  39.6  41.2 1036.6 -9.9 -9.999 -99.9 -99.99 -9.99
2019/02/19 17:42 EST    2.05   2.04    4  288    8  39.4  41.2 1036.5 -9.9 -9.999 -99.9 -99.99 -9.99
2019/02/19 17:48 EST    2.15   2.12    5  309    8  39.4  41.2 1036.3 -9.9 -9.999 -99.9 -99.99 -9.99
2019/02/19 17:54 EST    2.24   2.20    6  306    7  39.4  41.2 1036.5 -9.9 -9.999 -99.9 -99.99 -9.99
2019/02/19 18:00 EST    2.33   2.27    6  301    9  39.4  41.2 1036.4 -9.9 -9.999 -99.9 -99.99 -9.99
2019/02/19 18:06 EST    2.41   2.34    6  293    9  39.2  41.2 1036.4 -9.9 -9.999 -99.9 -99.99 -9.99
2019/02/19 18:12 EST    2.49   2.41    5  299    7  39.0  41.2 1036.3 -9.9 -9.999 -99.9 -99.99 -9.99
2019/02/19 18:18 EST    2.56   2.47    7  294    8  39.0  41.2 1036.4 -9.9 -9.999 -99.9 -99.99 -9.99
2019/02/19 18:24 EST    2.63   2.53    6  294    8  39.0  41.2 1036.7 -9.9 -9.999 -99.9 -99.99 -9.99
2019/02/19 18:30 EST    2.70   2.58    5  307    8  38.8  41.2 1036.9 -9.9 -9.999 -99.9 -99.99 -9.99
2019/02/19 18:36 EST    2.76   2.64    5  313    8  38.8  41.2 1037.0 -9.9 -9.999 -99.9 -99.99 -9.99
2019/02/19 18:42 EST    2.81   2.69    5  322    6  38.8  41.2 1036.9 -9.9 -9.999 -99.9 -99.99 -9.99
2019/02/19 18:48 EST    2.86   2.74    5  302    9  38.8  41.2 1036.7 -9.9 -9.999 -99.9 -99.99 -9.99
2019/02/19 18:54 EST    2.91   2.79    5  313    7  38.8  41.2 1036.7 -9.9 -9.999 -99.9 -99.99 -9.99
2019/02/19 19:00 EST    2.95   2.83    6  299    8  38.8  41.2 1036.8 -9.9 -9.999 -99.9 -99.99 -9.99
2019/02/19 19:06 EST    2.99   2.87    2  331    4  38.7  41.2 1036.5 -9.9 -9.999 -99.9 -99.99 -9.99
2019/02/19 19:12 EST    3.02   2.90    3  343    6  38.8  41.2 1036.6 -9.9 -9.999 -99.9 -99.99 -9.99
2019/02/19 19:18 EST    3.05   2.94    3  333    5  39.0  41.2 1036.9 -9.9 -9.999 -99.9 -99.99 -9.99
2019/02/19 19:24 EST    3.08   2.98    4   20    7  39.0  41.2 1037.0 -9.9 -9.999 -99.9 -99.99 -9.99
2019/02/19 19:30 EST    3.10   3.01    3   21    6  39.0  41.2 1037.0 -9.9 -9.999 -99.9 -99.99 -9.99
2019/02/19 19:36 EST    3.11   3.03    3   23    5  39.0  41.2 1036.9 -9.9 -9.999 -99.9 -99.99 -9.99
2019/02/19 19:42 EST    3.12   3.05    3  357    6  39.0  41.2 1037.0 -9.9 -9.999 -99.9 -99.99 -9.99
2019/02/19 19:48 EST    3.13   3.07    4   22    6  39.0  41.2 1036.9 -9.9 -9.999 -99.9 -99.99 -9.99
2019/02/19 19:54 EST    3.13   3.09    3   39    6  38.8  41.2 1036.9 -9.9 -9.999 -99.9 -99.99 -9.99
2019/02/19 20:00 EST    3.12   3.10    3   30    5  38.8  41.2 1036.7 -9.9 -9.999 -99.9 -99.99 -9.99
2019/02/19 20:06 EST    3.12   3.11    2   40    5  38.8  41.2 1036.8 -9.9 -9.999 -99.9 -99.99 -9.99
2019/02/19 20:12 EST    3.10   3.12    2   27    4  38.8  41.2 1036.9 -9.9 -9.999 -99.9 -99.99 -9.99
2019/02/19 20:18 EST    3.08   3.12    2    6    5  38.8  41.2 1037.0 -9.9 -9.999 -99.9 -99.99 -9.99
2019/02/19 20:24 EST    3.06   3.12    3   21    3  38.8  41.2 1037.0 -9.9 -9.999 -99.9 -99.99 -9.99
2019/02/19 20:30 EST    3.04   3.11    3   18    7  38.8  41.2 1036.9 -9.9 -9.999 -99.9 -99.99 -9.99
2019/02/19 20:36 EST    3.01   3.11    2   24    4  38.8  41.2 1037.0 -9.9 -9.999 -99.9 -99.99 -9.99
2019/02/19 20:42 EST    2.97   3.09    1  359    5  38.8  41.2 1036.8 -9.9 -9.999 -99.9 -99.99 -9.99
2019/02/19 20:48 EST    2.93   3.07    4  354    5  38.8  41.2 1036.9 -9.9 -9.999 -99.9 -99.99 -9.99
2019/02/19 20:54 EST    2.89   3.06    3  359    5  38.7  41.2 1036.8 -9.9 -9.999 -99.9 -99.99 -9.99
2019/02/19 21:00 EST    2.85   3.03    3   23    4  38.7  41.2 1036.7 -9.9 -9.999 -99.9 -99.99 -9.99
2019/02/19 21:06 EST    2.80   2.99    2   64    3  38.7  41.0 1036.7 -9.9 -9.999 -99.9 -99.99 -9.99
2019/02/19 21:12 EST    2.75   2.96    1   50    2  38.7  41.0 1036.6 -9.9 -9.999 -99.9 -99.99 -9.99
2019/02/19 21:18 EST    2.69   2.93    2   70    3  38.7  41.0 1036.6 -9.9 -9.999 -99.9 -99.99 -9.99
2019/02/19 21:24 EST    2.64   2.88    2   42    3  38.3  41.0 1036.4 -9.9 -9.999 -99.9 -99.99 -9.99
2019/02/19 21:30 EST    2.58   2.83    1   79    6  38.3  41.0 1036.4 -9.9 -9.999 -99.9 -99.99 -9.99
2019/02/19 21:36 EST    2.52   2.79    3   70    4  38.1  41.0 1036.5 -9.9 -9.999 -99.9 -99.99 -9.99
2019/02/19 21:42 EST    2.46   2.74    2   83    5  38.1  41.0 1036.5 -9.9 -9.999 -99.9 -99.99 -9.99
2019/02/19 21:48 EST    2.40   2.68    3   72    5  37.9  41.0 1036.6 -9.9 -9.999 -99.9 -99.99 -9.99
2019/02/19 21:54 EST    2.33   2.63    4   61    5  37.9  41.0 1036.4 -9.9 -9.999 -99.9 -99.99 -9.99
2019/02/19 22:00 EST    2.27   2.58    3   76    5  37.8  41.0 1036.4 -9.9 -9.999 -99.9 -99.99 -9.99
2019/02/19 22:06 EST    2.20   2.52    2   81    5  37.8  41.0 1036.6 -9.9 -9.999 -99.9 -99.99 -9.99
2019/02/19 22:12 EST    2.14   2.47    3   65    5  37.6  41.0 1036.6 -9.9 -9.999 -99.9 -99.99 -9.99
2019/02/19 22:18 EST    2.07   2.42    2   71    4  37.8  41.0 1036.7 -9.9 -9.999 -99.9 -99.99 -9.99
2019/02/19 22:24 EST    2.01   2.36    2   56    5  37.8  41.0 1036.8 -9.9 -9.999 -99.9 -99.99 -9.99
2019/02/19 22:30 EST    1.94   2.30    3   51    4  37.8  41.0 1036.7 -9.9 -9.999 -99.9 -99.99 -9.99
2019/02/19 22:36 EST    1.88   2.23    3  113    5  37.8  41.0 1036.8 -9.9 -9.999 -99.9 -99.99 -9.99
2019/02/19 22:42 EST    1.81   2.18    2  111    3  37.6  41.0 1036.9 -9.9 -9.999 -99.9 -99.99 -9.99
2019/02/19 22:48 EST    1.75   2.12    2  134    4  37.6  41.0 1036.9 -9.9 -9.999 -99.9 -99.99 -9.99
2019/02/19 22:54 EST    1.68   2.08    2  118    4  37.6  41.0 1036.9 -9.9 -9.999 -99.9 -99.99 -9.99
2019/02/19 23:00 EST    1.62   2.03    3  135    4  37.4  41.0 1036.9 -9.9 -9.999 -99.9 -99.99 -9.99
2019/02/19 23:06 EST    1.55   1.96    3  101    4  37.2  41.0 1036.9 -9.9 -9.999 -99.9 -99.99 -9.99
2019/02/19 23:12 EST    1.49   1.89    2  121    4  37.2  41.0 1037.0 -9.9 -9.999 -99.9 -99.99 -9.99
2019/02/19 23:18 EST    1.43   1.85    3  126    3  37.2  41.0 1036.9 -9.9 -9.999 -99.9 -99.99 -9.99
2019/02/19 23:24 EST    1.36   1.80    2  152    4  37.4  41.0 1036.9 -9.9 -9.999 -99.9 -99.99 -9.99
2019/02/19 23:30 EST    1.30   1.74    3  156    4  37.2  41.0 1036.9 -9.9 -9.999 -99.9 -99.99 -9.99
2019/02/19 23:36 EST    1.24   1.68    3  149    4  37.2  41.0 1036.8 -9.9 -9.999 -99.9 -99.99 -9.99
2019/02/19 23:42 EST    1.18   1.63    3  151    5  37.2  41.0 1036.8 -9.9 -9.999 -99.9 -99.99 -9.99
2019/02/19 23:48 EST    1.12   1.58    3  136    4  37.0  41.0 1036.7 -9.9 -9.999 -99.9 -99.99 -9.99
2019/02/19 23:54 EST    1.05   1.53    3  135    5  37.2  41.0 1036.6 -9.9 -9.999 -99.9 -99.99 -9.99
2019/02/20 00:00 EST    0.99   1.48    3   96    5  37.0  41.0 1036.3 -9.9 -9.999 -99.9 -99.99 -9.99
2019/02/20 00:06 EST    0.93   1.43    2  123    4  37.0  41.0 1036.1 -9.9 -9.999 -99.9 -99.99 -9.99
2019/02/20 00:12 EST    0.88   1.38    3  129    7  37.0  41.0 1036.1 -9.9 -9.999 -99.9 -99.99 -9.99
2019/02/20 00:18 EST    0.82   1.33    5  135    8  36.7  41.0 1036.3 -9.9 -9.999 -99.9 -99.99 -9.99
2019/02/20 00:24 EST    0.76   1.28    4  130    6  36.5  41.0 1036.2 -9.9 -9.999 -99.9 -99.99 -9.99
2019/02/20 00:30 EST    0.70   1.23    4  131    7  36.7  41.0 1036.1 -9.9 -9.999 -99.9 -99.99 -9.99
2019/02/20 00:36 EST    0.65   1.19    5  130    7  36.5  41.0 1036.4 -9.9 -9.999 -99.9 -99.99 -9.99
2019/02/20 00:42 EST    0.59   1.14    3  126    4  36.5  41.0 1036.5 -9.9 -9.999 -99.9 -99.99 -9.99
2019/02/20 00:48 EST    0.53   1.10    3  139    4  36.7  41.0 1036.6 -9.9 -9.999 -99.9 -99.99 -9.99
2019/02/20 00:54 EST    0.48   1.05    2   91    4  36.7  41.0 1036.5 -9.9 -9.999 -99.9 -99.99 -9.99
2019/02/20 01:00 EST    0.43   1.01    3  124    5  36.7  41.0 1036.5 -9.9 -9.999 -99.9 -99.99 -9.99
2019/02/20 01:06 EST    0.37   0.97    4  137    5  36.5  41.0 1036.7 -9.9 -9.999 -99.9 -99.99 -9.99
2019/02/20 01:12 EST    0.32   0.93    3  141    5  36.5  41.0 1036.7 -9.9 -9.999 -99.9 -99.99 -9.99
2019/02/20 01:18 EST    0.27   0.89    3  135    4  36.5  41.0 1036.4 -9.9 -9.999 -99.9 -99.99 -9.99
2019/02/20 01:24 EST    0.22   0.84    2  124    4  36.5  41.0 1036.5 -9.9 -9.999 -99.9 -99.99 -9.99
2019/02/20 01:30 EST    0.17   0.81    3  107    4  36.7  41.0 1036.4 -9.9 -9.999 -99.9 -99.99 -9.99
2019/02/20 01:36 EST    0.12   0.76    2   94    3  36.5  41.0 1036.5 -9.9 -9.999 -99.9 -99.99 -9.99
2019/02/20 01:42 EST    0.08   0.73    3  100    5  36.5  41.0 1036.5 -9.9 -9.999 -99.9 -99.99 -9.99
2019/02/20 01:48 EST    0.03   0.69    3   98    5  36.5  41.0 1036.4 -9.9 -9.999 -99.9 -99.99 -9.99
2019/02/20 01:54 EST   -0.02   0.66    3  107    7  36.5  41.0 1036.2 -9.9 -9.999 -99.9 -99.99 -9.99
2019/02/20 02:00 EST   -0.06   0.62    5  102    6  36.5  41.0 1035.9 -9.9 -9.999 -99.9 -99.99 -9.99
2019/02/20 02:06 EST   -0.10   0.59    4   96    5  36.3  41.0 1035.8 -9.9 -9.999 -99.9 -99.99 -9.99
2019/02/20 02:12 EST   -0.14   0.55    3   83    4  36.5  41.0 1035.7 -9.9 -9.999 -99.9 -99.99 -9.99
2019/02/20 02:18 EST   -0.18   0.51    4  106    6  36.5  41.0 1035.6 -9.9 -9.999 -99.9 -99.99 -9.99
2019/02/20 02:24 EST   -0.22   0.48    3  105    5  36.3  41.0 1035.5 -9.9 -9.999 -99.9 -99.99 -9.99
2019/02/20 02:30 EST   -0.25   0.45    4  100    6  36.3  41.0 1035.6 -9.9 -9.999 -99.9 -99.99 -9.99
2019/02/20 02:36 EST   -0.28   0.42    2   81    4  36.3  41.0 1035.3 -9.9 -9.999 -99.9 -99.99 -9.99
2019/02/20 02:42 EST   -0.31   0.39    3  107    7  36.3  41.0 1035.3 -9.9 -9.999 -99.9 -99.99 -9.99
2019/02/20 02:48 EST   -0.33   0.37    3   89    4  36.1  41.0 1035.3 -9.9 -9.999 -99.9 -99.99 -9.99
2019/02/20 02:54 EST   -0.35   0.34    2  101    7  36.1  41.0 1035.3 -9.9 -9.999 -99.9 -99.99 -9.99
2019/02/20 03:00 EST   -0.36   0.31    5  122    6  36.0  41.0 1035.4 -9.9 -9.999 -99.9 -99.99 -9.99
2019/02/20 03:06 EST   -0.37   0.29    3  110    6  36.0  41.0 1035.8 -9.9 -9.999 -99.9 -99.99 -9.99
2019/02/20 03:12 EST   -0.37   0.27    4  139    5  35.8  41.0 1035.8 -9.9 -9.999 -99.9 -99.99 -9.99
2019/02/20 03:18 EST   -0.37   0.24    3  129    5  35.8  41.0 1036.1 -9.9 -9.999 -99.9 -99.99 -9.99
2019/02/20 03:24 EST   -0.36   0.22    3  111    7  35.8  41.0 1035.6 -9.9 -9.999 -99.9 -99.99 -9.99
2019/02/20 03:30 EST   -0.35   0.21    4  108    7  35.8  41.0 1035.4 -9.9 -9.999 -99.9 -99.99 -9.99
2019/02/20 03:36 EST   -0.33   0.19    5  101    7  35.6  41.0 1035.1 -9.9 -9.999 -99.9 -99.99 -9.99
2019/02/20 03:42 EST   -0.30   0.19    5  105    8  35.4  41.0 1034.6 -9.9 -9.999 -99.9 -99.99 -9.99
2019/02/20 03:48 EST   -0.26   0.19    4  109    8  35.4  41.0 1034.9 -9.9 -9.999 -99.9 -99.99 -9.99
2019/02/20 03:54 EST   -0.22   0.19    4  101    8  35.4  41.0 1034.7 -9.9 -9.999 -99.9 -99.99 -9.99
2019/02/20 04:00 EST   -0.17   0.20 -999 -999 -999 -99.9 -99.9 -999.9 -9.9 -9.999 -99.9 -99.99 -9.99
2019/02/20 04:06 EST   -0.12   0.22    4  102    6  35.2  41.0 1034.4 -9.9 -9.999 -99.9 -99.99 -9.99
2019/02/20 04:12 EST   -0.05   0.27    3   93    7  35.4  41.0 1034.7 -9.9 -9.999 -99.9 -99.99 -9.99
2019/02/20 04:18 EST    0.02   0.31    4  114    7  35.2  41.0 1034.8 -9.9 -9.999 -99.9 -99.99 -9.99
2019/02/20 04:24 EST    0.09   0.38    4  109    5  35.2  41.0 1034.5 -9.9 -9.999 -99.9 -99.99 -9.99
2019/02/20 04:30 EST    0.17   0.46    2  110    5  35.2  41.0 1034.4 -9.9 -9.999 -99.9 -99.99 -9.99
2019/02/20 04:36 EST    0.26   0.55    3  127    7  35.2  41.0 1034.4 -9.9 -9.999 -99.9 -99.99 -9.99
2019/02/20 04:42 EST    0.35   0.65    3  100    5  35.2  41.0 1034.2 -9.9 -9.999 -99.9 -99.99 -9.99
2019/02/20 04:48 EST    0.45   0.75    5  100    7  35.1  41.0 1034.5 -9.9 -9.999 -99.9 -99.99 -9.99
2019/02/20 04:54 EST    0.55   0.87    2  140    4  35.2  41.0 1034.9 -9.9 -9.999 -99.9 -99.99 -9.99
2019/02/20 05:00 EST    0.65   0.98    3  122    7  35.2  41.0 1034.5 -9.9 -9.999 -99.9 -99.99 -9.99
2019/02/20 05:06 EST    0.76   1.10    3  119    7  35.1  41.0 1034.7 -9.9 -9.999 -99.9 -99.99 -9.99
2019/02/20 05:12 EST    0.87   1.22    4  128    5  35.1  41.0 1034.7 -9.9 -9.999 -99.9 -99.99 -9.99
2019/02/20 05:18 EST    0.98   1.34    3  118    5  35.1  41.0 1034.8 -9.9 -9.999 -99.9 -99.99 -9.99
2019/02/20 05:24 EST    1.09   1.46    3  110    4  34.9  41.0 1035.0 -9.9 -9.999 -99.9 -99.99 -9.99
2019/02/20 05:30 EST    1.20   1.58    3   94    4  35.1  41.0 1035.2 -9.9 -9.999 -99.9 -99.99 -9.99
2019/02/20 05:36 EST    1.31   1.70    2  104    3  35.1  41.0 1035.4 -9.9 -9.999 -99.9 -99.99 -9.99
2019/02/20 05:42 EST    1.42   1.82    3  107    4  35.1  41.0 1035.1 -9.9 -9.999 -99.9 -99.99 -9.99
2019/02/20 05:48 EST    1.52   1.93    3  129    6  35.1  41.0 1034.9 -9.9 -9.999 -99.9 -99.99 -9.99
2019/02/20 05:54 EST    1.63   2.03    4  131    8  35.1  41.0 1034.8 -9.9 -9.999 -99.9 -99.99 -9.99
2019/02/20 06:00 EST    1.73   2.13    3  146    8  34.2  41.0 1034.7 -9.9 -9.999 -99.9 -99.99 -9.99
2019/02/20 06:06 EST    1.83   2.23    6  158   11  32.9  41.0 1034.9 -9.9 -9.999 -99.9 -99.99 -9.99
2019/02/20 06:12 EST    1.93   2.31    7  167    9  31.8  41.0 1035.4 -9.9 -9.999 -99.9 -99.99 -9.99
2019/02/20 06:18 EST    2.02   2.40    4  163   10  31.5  41.0 1035.5 -9.9 -9.999 -99.9 -99.99 -9.99
2019/02/20 06:24 EST    2.11   2.48    7  177    7  31.1  41.0 1035.6 -9.9 -9.999 -99.9 -99.99 -9.99
2019/02/20 06:30 EST    2.20   2.56    6  177    8  30.9  41.0 1035.9 -9.9 -9.999 -99.9 -99.99 -9.99
2019/02/20 06:36 EST    2.28   2.64    5  136    7  30.4  41.0 1035.3 -9.9 -9.999 -99.9 -99.99 -9.99
2019/02/20 06:42 EST    2.35   2.71    5  136    6  30.2  41.0 1035.2 -9.9 -9.999 -99.9 -99.99 -9.99
2019/02/20 06:48 EST    2.43   2.76    4   92    8  30.2  41.0 1034.6 -9.9 -9.999 -99.9 -99.99 -9.99
2019/02/20 06:54 EST    2.50   2.82    4  100    5  29.8  41.0 1034.6 -9.9 -9.999 -99.9 -99.99 -9.99
2019/02/20 07:00 EST    2.56   2.89    4  109    5  29.8  41.0 1034.5 -9.9 -9.999 -99.9 -99.99 -9.99
2019/02/20 07:06 EST    2.62   2.94    3  116    6  29.8  41.0 1034.5 -9.9 -9.999 -99.9 -99.99 -9.99
2019/02/20 07:12 EST    2.68   2.98    5   98    8  29.8  41.0 1033.9 -9.9 -9.999 -99.9 -99.99 -9.99
2019/02/20 07:18 EST    2.73   3.03    5   99    6  29.8  41.0 1033.7 -9.9 -9.999 -99.9 -99.99 -9.99
2019/02/20 07:24 EST    2.78   3.07    2  107    7  29.8  41.0 1034.3 -9.9 -9.999 -99.9 -99.99 -9.99
2019/02/20 07:30 EST    2.82   3.10    5   99    7  29.7  41.0 1034.4 -9.9 -9.999 -99.9 -99.99 -9.99
2019/02/20 07:36 EST    2.86   3.09    4  112    6  29.7  41.0 1034.2 -9.9 -9.999 -99.9 -99.99 -9.99
2019/02/20 07:42 EST    2.89   3.11    4   94    7  29.7  41.0 1034.0 -9.9 -9.999 -99.9 -99.99 -9.99
2019/02/20 07:48 EST    2.92   3.14    4  104    5  29.7  41.0 1034.1 -9.9 -9.999 -99.9 -99.99 -9.99
2019/02/20 07:54 EST    2.94   3.16    3   58    6  29.8  41.0 1034.3 -9.9 -9.999 -99.9 -99.99 -9.99
2019/02/20 08:00 EST    2.96   3.19    3   73    4  29.8  41.0 1034.5 -9.9 -9.999 -99.9 -99.99 -9.99
2019/02/20 08:06 EST    2.98   3.20    2   63    7  30.2  41.0 1034.7 -9.9 -9.999 -99.9 -99.99 -9.99
2019/02/20 08:12 EST    2.99   3.21    4   92    7  29.8  41.0 1034.3 -9.9 -9.999 -99.9 -99.99 -9.99
2019/02/20 08:18 EST    2.99   3.22    4  112    8  29.5  41.0 1034.1 -9.9 -9.999 -99.9 -99.99 -9.99
2019/02/20 08:24 EST    2.99   3.23    4  111    6  29.3  41.0 1033.9 -9.9 -9.999 -99.9 -99.99 -9.99
2019/02/20 08:30 EST    2.99   3.22    4   77    7  29.5  41.0 1034.4 -9.9 -9.999 -99.9 -99.99 -9.99
2019/02/20 08:36 EST    2.98   3.22    4  108    6  29.3  41.0 1034.3 -9.9 -9.999 -99.9 -99.99 -9.99
2019/02/20 08:42 EST    2.96   3.22    4  108    7  29.1  41.0 1034.4 -9.9 -9.999 -99.9 -99.99 -9.99
2019/02/20 08:48 EST    2.94   3.21    3  119    7  29.1  41.0 1034.6 -9.9 -9.999 -99.9 -99.99 -9.99
2019/02/20 08:54 EST    2.92   3.20    3  106    5  29.3  41.0 1034.2 -9.9 -9.999 -99.9 -99.99 -9.99
2019/02/20 09:00 EST    2.89   3.18    3   71    5  29.3  41.0 1034.0 -9.9 -9.999 -99.9 -99.99 -9.99
2019/02/20 09:06 EST    2.86   3.16    2   89    6  29.5  41.0 1034.0 -9.9 -9.999 -99.9 -99.99 -9.99
2019/02/20 09:12 EST    2.82   3.14    4   63    7  29.1  41.0 1033.7 -9.9 -9.999 -99.9 -99.99 -9.99
2019/02/20 09:18 EST    2.78   3.12    4   56    7  28.9  41.0 1033.6 -9.9 -9.999 -99.9 -99.99 -9.99
2019/02/20 09:24 EST    2.74   3.09    4  108    7  29.1  41.0 1033.9 -9.9 -9.999 -99.9 -99.99 -9.99
2019/02/20 09:30 EST    2.69   3.06    3   70    5  29.1  41.0 1033.8 -9.9 -9.999 -99.9 -99.99 -9.99
2019/02/20 09:36 EST    2.64   3.02    2   46    5  29.3  41.0 1033.7 -9.9 -9.999 -99.9 -99.99 -9.99
2019/02/20 09:42 EST    2.59   2.98    3   65    5  29.3  41.0 1033.8 -9.9 -9.999 -99.9 -99.99 -9.99
2019/02/20 09:48 EST    2.53   2.95    2   77    4  29.3  41.0 1033.6 -9.9 -9.999 -99.9 -99.99 -9.99
2019/02/20 09:54 EST    2.47   2.91    2  111    7  29.5  41.0 1033.3 -9.9 -9.999 -99.9 -99.99 -9.99
2019/02/20 10:00 EST    2.41   2.86    4   82    7  29.5  41.0 1033.2 -9.9 -9.999 -99.9 -99.99 -9.99
2019/02/20 10:06 EST    2.35   2.80    5  103    8  29.3  41.0 1032.8 -9.9 -9.999 -99.9 -99.99 -9.99
2019/02/20 10:12 EST    2.29   2.76    4  104    5  29.5  41.0 1033.2 -9.9 -9.999 -99.9 -99.99 -9.99
2019/02/20 10:18 EST    2.22   2.72    2   96    4  29.5  41.0 1033.4 -9.9 -9.999 -99.9 -99.99 -9.99
2019/02/20 10:24 EST    2.16   2.66    2   81    5  29.7  41.0 1033.7 -9.9 -9.999 -99.9 -99.99 -9.99
2019/02/20 10:30 EST    2.09   2.61    1  135    6  29.8  41.0 1034.0 -9.9 -9.999 -99.9 -99.99 -9.99
2019/02/20 10:36 EST    2.02   2.55    4   94    6  29.8  41.0 1033.6 -9.9 -9.999 -99.9 -99.99 -9.99
2019/02/20 10:42 EST    1.95   2.50    3   67    4  30.0  41.0 1033.1 -9.9 -9.999 -99.9 -99.99 -9.99
2019/02/20 10:48 EST    1.89   2.43    2   68    7  30.0  41.0 1033.2 -9.9 -9.999 -99.9 -99.99 -9.99
2019/02/20 10:54 EST    1.82   2.37    4   93    8  29.7  41.0 1032.8 -9.9 -9.999 -99.9 -99.99 -9.99
2019/02/20 11:00 EST    1.75   2.33    2   73    7  29.7  41.0 1033.5 -9.9 -9.999 -99.9 -99.99 -9.99
2019/02/20 11:06 EST    1.68   2.28    4    7    5  29.8  41.0 1035.0 -9.9 -9.999 -99.9 -99.99 -9.99
2019/02/20 11:12 EST    1.61   2.21    1   26    4  30.0  41.0 1034.8 -9.9 -9.999 -99.9 -99.99 -9.99
2019/02/20 11:18 EST    1.55   2.16    1   50    4  30.0  41.0 1034.4 -9.9 -9.999 -99.9 -99.99 -9.99
2019/02/20 11:24 EST    1.48   2.10    2   88    4  30.0  41.0 1034.0 -9.9 -9.999 -99.9 -99.99 -9.99
2019/02/20 11:30 EST    1.41   2.04    3   66    5  30.0  41.0 1033.8 -9.9 -9.999 -99.9 -99.99 -9.99
2019/02/20 11:36 EST    1.34   1.98    2   82    7  30.0  41.0 1033.2 -9.9 -9.999 -99.9 -99.99 -9.99
2019/02/20 11:42 EST    1.28   1.92    4   99    5  30.0  41.0 1033.3 -9.9 -9.999 -99.9 -99.99 -9.99
2019/02/20 11:48 EST    1.21   1.87    4   71    5  30.0  41.0 1033.0 -9.9 -9.999 -99.9 -99.99 -9.99
2019/02/20 11:54 EST    1.15   1.81    3  106   10  30.2  41.0 1032.8 -9.9 -9.999 -99.9 -99.99 -9.99
2019/02/20 12:00 EST    1.08   1.77    5  105    7  30.0  41.0 1032.4 -9.9 -9.999 -99.9 -99.99 -9.99
2019/02/20 12:06 EST    1.02   1.72    5  114    8  30.2  41.0 1032.1 -9.9 -9.999 -99.9 -99.99 -9.99
2019/02/20 12:12 EST    0.95   1.67    2   99    5  30.0  41.0 1032.6 -9.9 -9.999 -99.9 -99.99 -9.99
2019/02/20 12:18 EST    0.89   1.61    3  106    8  30.2  41.0 1032.4 -9.9 -9.999 -99.9 -99.99 -9.99
2019/02/20 12:24 EST    0.83   1.57    4  111    7  30.2  41.0 1032.0 -9.9 -9.999 -99.9 -99.99 -9.99
2019/02/20 12:30 EST    0.77   1.53    5  114    8  30.4  41.0 1031.4 -9.9 -9.999 -99.9 -99.99 -9.99
2019/02/20 12:36 EST    0.71   1.48    5  141    8  30.6  41.0 1030.9 -9.9 -9.999 -99.9 -99.99 -9.99
2019/02/20 12:42 EST    0.65   1.43    4  121    8  30.6  41.0 1030.8 -9.9 -9.999 -99.9 -99.99 -9.99
2019/02/20 12:48 EST    0.59   1.38    5  123    8  30.7  41.0 1030.0 -9.9 -9.999 -99.9 -99.99 -9.99
2019/02/20 12:54 EST    0.53   1.33    4  122    5  30.7  41.0 1030.1 -9.9 -9.999 -99.9 -99.99 -9.99
2019/02/20 13:00 EST    0.47   1.29    3  116    7  30.9  41.0 1030.1 -9.9 -9.999 -99.9 -99.99 -9.99
2019/02/20 13:06 EST    0.42   1.25    4  102    6  31.1  41.0 1029.7 -9.9 -9.999 -99.9 -99.99 -9.99
2019/02/20 13:12 EST    0.36   1.22    2   30    5  31.1  41.0 1030.4 -9.9 -9.999 -99.9 -99.99 -9.99
2019/02/20 13:18 EST    0.31   1.18    3   90    5  31.3  41.0 1029.9 -9.9 -9.999 -99.9 -99.99 -9.99
2019/02/20 13:24 EST    0.26   1.14 -999 -999 -999 -99.9 -99.9 -999.9 -9.9 -9.999 -99.9 -99.99 -9.99
2019/02/20 13:30 EST    0.21   1.09    3  101    5  31.3  41.0 1029.7 -9.9 -9.999 -99.9 -99.99 -9.99
2019/02/20 13:36 EST    0.16   1.05    4  104    6  31.3  41.0 1029.2 -9.9 -9.999 -99.9 -99.99 -9.99
2019/02/20 13:42 EST    0.11   1.00    1  350    4  31.3  40.8 1029.4 -9.9 -9.999 -99.9 -99.99 -9.99
2019/02/20 13:48 EST    0.06   0.96    4   47    5  31.5  40.8 1029.4 -9.9 -9.999 -99.9 -99.99 -9.99
2019/02/20 13:54 EST    0.01   0.93    3   83    4  31.5  40.8 1029.0 -9.9 -9.999 -99.9 -99.99 -9.99
2019/02/20 14:00 EST   -0.03   0.90    0   37    4  31.5  40.8 1029.1 -9.9 -9.999 -99.9 -99.99 -9.99
2019/02/20 14:06 EST   -0.08   0.86    3   51    4  31.5  40.8 1029.0 -9.9 -9.999 -99.9 -99.99 -9.99
2019/02/20 14:12 EST   -0.12   0.83    2  158    4  31.5  40.8 1029.0 -9.9 -9.999 -99.9 -99.99 -9.99
2019/02/20 14:18 EST   -0.16   0.80    3   61    4  31.3  40.8 1028.8 -9.9 -9.999 -99.9 -99.99 -9.99
2019/02/20 14:24 EST   -0.20   0.76    1   87    2  31.3  40.8 1028.9 -9.9 -9.999 -99.9 -99.99 -9.99
2019/02/20 14:30 EST   -0.24   0.74    2  125    3  31.5  40.8 1028.8 -9.9 -9.999 -99.9 -99.99 -9.99
2019/02/20 14:36 EST   -0.27   0.71    2   92    2  31.5  40.8 1028.6 -9.9 -9.999 -99.9 -99.99 -9.99
2019/02/20 14:42 EST   -0.31   0.67    1   76    2  31.5  40.8 1028.6 -9.9 -9.999 -99.9 -99.99 -9.99
2019/02/20 14:48 EST   -0.34   0.65    2  131    4  31.6  40.8 1028.2 -9.9 -9.999 -99.9 -99.99 -9.99
2019/02/20 14:54 EST   -0.36   0.63    2  103    5  31.6  40.8 1028.0 -9.9 -9.999 -99.9 -99.99 -9.99
2019/02/20 15:00 EST   -0.39   0.60    3   87    4  31.6  40.8 1027.9 -9.9 -9.999 -99.9 -99.99 -9.99
2019/02/20 15:06 EST   -0.41   0.58    1   66    3  31.6  40.8 1028.0 -9.9 -9.999 -99.9 -99.99 -9.99
2019/02/20 15:12 EST   -0.42   0.56    2  101    4  31.8  40.8 1027.8 -9.9 -9.999 -99.9 -99.99 -9.99
2019/02/20 15:18 EST   -0.44   0.55    3  132    4  31.8  40.8 1027.5 -9.9 -9.999 -99.9 -99.99 -9.99
2019/02/20 15:24 EST   -0.44   0.53    1  119    4  31.8  40.8 1027.3 -9.9 -9.999 -99.9 -99.99 -9.99
2019/02/20 15:30 EST   -0.45   0.51    1  155    3  31.8  40.8 1027.4 -9.9 -9.999 -99.9 -99.99 -9.99
2019/02/20 15:36 EST   -0.44   0.50    2   48    3  31.8  40.8 1027.5 -9.9 -9.999 -99.9 -99.99 -9.99
2019/02/20 15:42 EST   -0.43   0.50    0   88    2  31.8  40.8 1027.5 -9.9 -9.999 -99.9 -99.99 -9.99
2019/02/20 15:48 EST   -0.42   0.50    1   95    4  32.0  40.8 1027.2 -9.9 -9.999 -99.9 -99.99 -9.99
2019/02/20 15:54 EST   -0.40   0.51    1  356    3  31.8  40.8 1027.3 -9.9 -9.999 -99.9 -99.99 -9.99
2019/02/20 16:00 EST   -0.37   0.51    1   45    3  31.8  40.8 1027.3 -9.9 -9.999 -99.9 -99.99 -9.99
2019/02/20 16:06 EST   -0.33   0.52    2    0    3  32.0  40.8 1027.3 -9.9 -9.999 -99.9 -99.99 -9.99
2019/02/20 16:12 EST   -0.29   0.56    1   19    3  32.0  40.8 1027.3 -9.9 -9.999 -99.9 -99.99 -9.99
2019/02/20 16:18 EST   -0.24   0.60    2   33    4  32.0  40.8 1027.2 -9.9 -9.999 -99.9 -99.99 -9.99
2019/02/20 16:24 EST   -0.18   0.65    3   11    5  32.0  40.8 1027.5 -9.9 -9.999 -99.9 -99.99 -9.99
2019/02/20 16:30 EST   -0.12   0.72    3   29    4  32.0  40.8 1027.0 -9.9 -9.999 -99.9 -99.99 -9.99
2019/02/20 16:36 EST   -0.05   0.80    1   68    4  32.0  40.8 1026.9 -9.9 -9.999 -99.9 -99.99 -9.99
2019/02/20 16:42 EST    0.03   0.89    2   55    4  32.0  40.8 1026.4 -9.9 -9.999 -99.9 -99.99 -9.99
2019/02/20 16:48 EST    0.11   0.99    2   55    5  32.0  40.8 1026.3 -9.9 -9.999 -99.9 -99.99 -9.99
2019/02/20 16:54 EST    0.20   1.08    2   46    4  32.0  40.8 1026.5 -9.9 -9.999 -99.9 -99.99 -9.99
2019/02/20 17:00 EST    0.29   1.19    3   74    5  32.0  40.8 1026.5 -9.9 -9.999 -99.9 -99.99 -9.99
2019/02/20 17:06 EST    0.39   1.31    4   66    6  32.0  40.8 1026.3 -9.9 -9.999 -99.9 -99.99 -9.99
2019/02/20 17:12 EST    0.49   1.43    3   80    5  32.2  40.8 1025.8 -9.9 -9.999 -99.9 -99.99 -9.99
2019/02/20 17:18 EST    0.60   1.55    2   75    4  32.0  40.8 1025.7 -9.9 -9.999 -99.9 -99.99 -9.99
2019/02/20 17:24 EST    0.71   1.66    3   20    6  32.2  40.8 1025.9 -9.9 -9.999 -99.9 -99.99 -9.99
2019/02/20 17:30 EST    0.82   1.78    3   12    5  32.2  40.8 1025.7 -9.9 -9.999 -99.9 -99.99 -9.99
2019/02/20 17:36 EST    0.94   1.92    2  360    5  32.0  40.8 1025.7 -9.9 -9.999 -99.9 -99.99 -9.99
2019/02/20 17:42 EST    1.05   2.03    1    2    4  32.2  40.8 1026.0 -9.9 -9.999 -99.9 -99.99 -9.99
2019/02/20 17:48 EST    1.17   2.14    2  337    3  32.2  40.8 1026.1 -9.9 -9.999 -99.9 -99.99 -9.99
2019/02/20 17:54 EST    1.28   2.26    2   24    4  32.4  40.8 1026.1 -9.9 -9.999 -99.9 -99.99 -9.99
2019/02/20 18:00 EST    1.40   2.37    2   57    5  32.5  40.8 1025.4 -9.9 -9.999 -99.9 -99.99 -9.99
2019/02/20 18:06 EST    1.51   2.47    3   80    6  32.5  40.8 1024.5 -9.9 -9.999 -99.9 -99.99 -9.99
2019/02/20 18:12 EST    1.62   2.55    4   73    5  32.5  40.8 1024.5 -9.9 -9.999 -99.9 -99.99 -9.99
2019/02/20 18:18 EST    1.73   2.64    2  360    4  32.4  40.8 1024.9 -9.9 -9.999 -99.9 -99.99 -9.99
2019/02/20 18:24 EST    1.84   2.73    2    4    4  32.4  40.8 1025.1 -9.9 -9.999 -99.9 -99.99 -9.99
2019/02/20 18:30 EST    1.94   2.82    2  358    4  32.5  40.8 1025.2 -9.9 -9.999 -99.9 -99.99 -9.99
2019/02/20 18:36 EST    2.04   2.91    2   45    5  32.5  40.8 1024.8 -9.9 -9.999 -99.9 -99.99 -9.99
2019/02/20 18:42 EST    2.14   2.98    2   14    4  32.5  40.8 1024.9 -9.9 -9.999 -99.9 -99.99 -9.99
2019/02/20 18:48 EST    2.23   3.05 -999 -999 -999 -99.9 -99.9 -999.9 -9.9 -9.999 -99.9 -99.99 -9.99
2019/02/20 18:54 EST    2.32   3.11    3   11    4  32.7  40.8 1025.0 -9.9 -9.999 -99.9 -99.99 -9.99
2019/02/20 19:00 EST    2.41   3.17    2    6    2  32.5  40.8 1024.9 -9.9 -9.999 -99.9 -99.99 -9.99
2019/02/20 19:06 EST    2.49   3.23    1   54    4  32.7  40.8 1024.6 -9.9 -9.999 -99.9 -99.99 -9.99
2019/02/20 19:12 EST    2.56   3.30    1   22    3  32.7  40.8 1024.5 -9.9 -9.999 -99.9 -99.99 -9.99
2019/02/20 19:18 EST    2.63   3.36    2  326    3  32.7  40.8 1024.7 -9.9 -9.999 -99.9 -99.99 -9.99
2019/02/20 19:24 EST    2.70   3.41    2    3    3  32.9  40.8 1024.7 -9.9 -9.999 -99.9 -99.99 -9.99
2019/02/20 19:30 EST    2.76   3.46    0    4    3  33.1  40.8 1024.4 -9.9 -9.999 -99.9 -99.99 -9.99
2019/02/20 19:36 EST    2.82   3.49    2   82    3  32.9  40.8 1024.0 -9.9 -9.999 -99.9 -99.99 -9.99
2019/02/20 19:42 EST    2.87   3.54    3   99    5  33.1  40.8 1023.3 -9.9 -9.999 -99.9 -99.99 -9.99
2019/02/20 19:48 EST    2.92   3.59    3   84    6  33.1  40.8 1022.0 -9.9 -9.999 -99.9 -99.99 -9.99
2019/02/20 19:54 EST    2.96   3.62    2  348    6  32.9  40.8 1022.9 -9.9 -9.999 -99.9 -99.99 -9.99
2019/02/20 20:00 EST    3.00   3.64    3   52    5  32.9  40.8 1022.5 -9.9 -9.999 -99.9 -99.99 -9.99
2019/02/20 20:06 EST    3.04   3.69    3   80    7  33.1  40.8 1021.8 -9.9 -9.999 -99.9 -99.99 -9.99
2019/02/20 20:12 EST    3.07   3.73    4   79    8  32.9  40.8 1021.4 -9.9 -9.999 -99.9 -99.99 -9.99
2019/02/20 20:18 EST    3.09   3.73    2   34    6  32.7  40.8 1021.7 -9.9 -9.999 -99.9 -99.99 -9.99
2019/02/20 20:24 EST    3.11   3.74    3   65    5  32.7  40.8 1021.5 -9.9 -9.999 -99.9 -99.99 -9.99
2019/02/20 20:30 EST    3.13   3.77    1   55    6  32.9  40.8 1021.4 -9.9 -9.999 -99.9 -99.99 -9.99
2019/02/20 20:36 EST    3.14   3.78    4   52    7  32.7  40.8 1021.2 -9.9 -9.999 -99.9 -99.99 -9.99
2019/02/20 20:42 EST    3.14   3.78    2   69    4  32.7  40.8 1021.6 -9.9 -9.999 -99.9 -99.99 -9.99
2019/02/20 20:48 EST    3.14   3.78    3  346    4  32.9  40.8 1022.0 -9.9 -9.999 -99.9 -99.99 -9.99
2019/02/20 20:54 EST    3.14   3.79    2   10    4  32.9  40.8 1021.4 -9.9 -9.999 -99.9 -99.99 -9.99
2019/02/20 21:00 EST    3.13   3.79    3   64    4  32.9  40.8 1020.8 -9.9 -9.999 -99.9 -99.99 -9.99
2019/02/20 21:06 EST    3.11   3.77    3    5    4  32.9  40.8 1020.9 -9.9 -9.999 -99.9 -99.99 -9.99
2019/02/20 21:12 EST    3.10   3.74    1   35    3  33.1  40.8 1020.8 -9.9 -9.999 -99.9 -99.99 -9.99
2019/02/20 21:18 EST    3.07   3.72    2    8    4  32.9  40.8 1020.5 -9.9 -9.999 -99.9 -99.99 -9.99
2019/02/20 21:24 EST    3.05   3.70    1   20    5  33.1  40.8 1020.4 -9.9 -9.999 -99.9 -99.99 -9.99
2019/02/20 21:30 EST    3.01   3.68    3   26    5  32.7  40.8 1019.9 -9.9 -9.999 -99.9 -99.99 -9.99
2019/02/20 21:36 EST    2.98   3.64    2   68    3  32.9  40.8 1019.9 -9.9 -9.999 -99.9 -99.99 -9.99
2019/02/20 21:42 EST    2.94   3.61    2   15    3  32.9  40.8 1020.2 -9.9 -9.999 -99.9 -99.99 -9.99
2019/02/20 21:48 EST    2.89   3.57    1  355    4  33.1  40.8 1020.3 -9.9 -9.999 -99.9 -99.99 -9.99
2019/02/20 21:54 EST    2.85   3.54    3    2    4  32.9  40.8 1020.1 -9.9 -9.999 -99.9 -99.99 -9.99
2019/02/20 22:00 EST    2.80   3.48    2    4    3  33.1  40.8 1020.0 -9.9 -9.999 -99.9 -99.99 -9.99
2019/02/20 22:06 EST    2.75   3.43    0   43    2  33.3  40.6 1019.8 -9.9 -9.999 -99.9 -99.99 -9.99
2019/02/20 22:12 EST    2.69   3.38    1   29    2  33.3  40.6 1019.4 -9.9 -9.999 -99.9 -99.99 -9.99
2019/02/20 22:18 EST    2.63   3.32    1    8    3  33.1  40.6 1019.3 -9.9 -9.999 -99.9 -99.99 -9.99
2019/02/20 22:24 EST    2.57   3.27    2   24    3  33.3  40.6 1019.0 -9.9 -9.999 -99.9 -99.99 -9.99
2019/02/20 22:30 EST    2.51   3.22    2  306    4  33.3  40.6 1019.6 -9.9 -9.999 -99.9 -99.99 -9.99
2019/02/20 22:36 EST    2.45   3.16    2  273    2  33.3  40.6 1019.8 -9.9 -9.999 -99.9 -99.99 -9.99
2019/02/20 22:42 EST    2.39   3.10    2  333    3  33.3  40.6 1019.3 -9.9 -9.999 -99.9 -99.99 -9.99
2019/02/20 22:48 EST    2.32   3.06    2  294    3  33.4  40.6 1018.9 -9.9 -9.999 -99.9 -99.99 -9.99
2019/02/20 22:54 EST    2.26   3.00    2  289    2  33.4  40.6 1018.6 -9.9 -9.999 -99.9 -99.99 -9.99
2019/02/20 23:00 EST    2.19   2.93    2  251    3  33.3  40.6 1018.6 -9.9 -9.999 -99.9 -99.99 -9.99
2019/02/20 23:06 EST    2.12   2.85    1  256    1  33.1  40.6 1018.3 -9.9 -9.999 -99.9 -99.99 -9.99
2019/02/20 23:12 EST    2.06   2.80    0    3    4  33.1  40.6 1017.9 -9.9 -9.999 -99.9 -99.99 -9.99
2019/02/20 23:18 EST    1.99   2.74    3  303    4  33.6  40.6 1018.3 -9.9 -9.999 -99.9 -99.99 -9.99
2019/02/20 23:24 EST    1.92   2.68    2  288    4  33.4  40.6 1018.3 -9.9 -9.999 -99.9 -99.99 -9.99
2019/02/20 23:30 EST    1.86   2.62    3  292    5  33.4  40.6 1018.2 -9.9 -9.999 -99.9 -99.99 -9.99
2019/02/20 23:36 EST    1.79   2.56    4  303    7  33.3  40.6 1018.4 -9.9 -9.999 -99.9 -99.99 -9.99
2019/02/20 23:42 EST    1.72   2.50    5  304    7  33.3  40.6 1018.6 -9.9 -9.999 -99.9 -99.99 -9.99
2019/02/20 23:48 EST    1.65   2.45    4  303    6  33.3  40.6 1018.5 -9.9 -9.999 -99.9 -99.99 -9.99
2019/02/20 23:54 EST    1.59   2.39    2  312    4  33.3  40.6 1017.7 -9.9 -9.999 -99.9 -99.99 -9.99
2019/02/21 00:00 EST    1.52   2.33    3  297    5  33.4  40.6 1017.5 -9.9 -9.999 -99.9 -99.99 -9.99
2019/02/21 00:06 EST    1.46   2.26    3  314    4  33.3  40.6 1017.3 -9.9 -9.999 -99.9 -99.99 -9.99
2019/02/21 00:12 EST    1.39   2.21    2  288    4  33.4  40.6 1017.2 -9.9 -9.999 -99.9 -99.99 -9.99
2019/02/21 00:18 EST    1.32   2.16    2  258    3  33.3  40.6 1017.2 -9.9 -9.999 -99.9 -99.99 -9.99
2019/02/21 00:24 EST    1.26   2.10    1  257    3  33.1  40.6 1017.1 -9.9 -9.999 -99.9 -99.99 -9.99
2019/02/21 00:30 EST    1.19   2.05    2  284    3  33.3  40.6 1016.9 -9.9 -9.999 -99.9 -99.99 -9.99
2019/02/21 00:36 EST    1.13   2.00    2  261    3  33.3  40.6 1017.0 -9.9 -9.999 -99.9 -99.99 -9.99
2019/02/21 00:42 EST    1.07   1.94    3  267    3  33.3  40.6 1017.1 -9.9 -9.999 -99.9 -99.99 -9.99
2019/02/21 00:48 EST    1.00   1.89    2  243    3  33.3  40.6 1016.9 -9.9 -9.999 -99.9 -99.99 -9.99
2019/02/21 00:54 EST    0.94   1.84    2  286    3  33.4  40.6 1017.0 -9.9 -9.999 -99.9 -99.99 -9.99
2019/02/21 01:00 EST    0.88   1.79    2  268    3  33.4  40.6 1017.1 -9.9 -9.999 -99.9 -99.99 -9.99
2019/02/21 01:06 EST    0.82   1.74    2  294    4  33.4  40.6 1016.9 -9.9 -9.999 -99.9 -99.99 -9.99
2019/02/21 01:12 EST    0.75   1.69    2  282    3  33.4  40.6 1017.1 -9.9 -9.999 -99.9 -99.99 -9.99
2019/02/21 01:18 EST    0.69   1.65    2  278    3  33.3  40.6 1017.2 -9.9 -9.999 -99.9 -99.99 -9.99
2019/02/21 01:24 EST    0.64   1.60    1  268    2  33.3  40.6 1017.0 -9.9 -9.999 -99.9 -99.99 -9.99
2019/02/21 01:30 EST    0.58   1.55    2  283    3  33.4  40.6 1017.1 -9.9 -9.999 -99.9 -99.99 -9.99
2019/02/21 01:36 EST    0.52   1.51    1  272    2  33.4  40.6 1016.7 -9.9 -9.999 -99.9 -99.99 -9.99
2019/02/21 01:42 EST    0.46   1.47    0  265    2  33.4  40.6 1016.6 -9.9 -9.999 -99.9 -99.99 -9.99
2019/02/21 01:48 EST    0.41   1.42    1  269    2  33.3  40.6 1016.5 -9.9 -9.999 -99.9 -99.99 -9.99
2019/02/21 01:54 EST    0.35   1.38    1  253    2  33.3  40.6 1016.5 -9.9 -9.999 -99.9 -99.99 -9.99
2019/02/21 02:00 EST    0.30   1.34    2  265    2  33.4  40.6 1016.3 -9.9 -9.999 -99.9 -99.99 -9.99
2019/02/21 02:06 EST    0.24   1.31    1  242    2  33.4  40.6 1016.3 -9.9 -9.999 -99.9 -99.99 -9.99
2019/02/21 02:12 EST    0.19   1.27    2  252    2  33.4  40.6 1016.1 -9.9 -9.999 -99.9 -99.99 -9.99
2019/02/21 02:18 EST    0.14   1.22    1  276    2  33.4  40.6 1016.0 -9.9 -9.999 -99.9 -99.99 -9.99
2019/02/21 02:24 EST    0.09   1.18    1  272    2  33.4  40.6 1015.9 -9.9 -9.999 -99.9 -99.99 -9.99
2019/02/21 02:30 EST    0.04   1.15    1  263    2  33.4  40.6 1016.1 -9.9 -9.999 -99.9 -99.99 -9.99
2019/02/21 02:36 EST   -0.01   1.11    2  255    3  33.4  40.6 1015.9 -9.9 -9.999 -99.9 -99.99 -9.99
2019/02/21 02:42 EST   -0.06   1.08    2  262    3  33.4  40.6 1016.0 -9.9 -9.999 -99.9 -99.99 -9.99
2019/02/21 02:48 EST   -0.10   1.04    2  264    3  33.6  40.6 1015.9 -9.9 -9.999 -99.9 -99.99 -9.99
2019/02/21 02:54 EST   -0.15   1.00    2  278    3  33.6  40.6 1015.8 -9.9 -9.999 -99.9 -99.99 -9.99
2019/02/21 03:00 EST   -0.19   0.97    2  257    2  33.6  40.6 1016.0 -9.9 -9.999 -99.9 -99.99 -9.99
2019/02/21 03:06 EST   -0.23   0.94    1  279    2  33.6  40.6 1015.9 -9.9 -9.999 -99.9 -99.99 -9.99
2019/02/21 03:12 EST   -0.26   0.91    0  254    2  33.8  40.6 1015.7 -9.9 -9.999 -99.9 -99.99 -9.99
2019/02/21 03:18 EST   -0.30   0.88    2  244    2  34.0  40.6 1015.8 -9.9 -9.999 -99.9 -99.99 -9.99
2019/02/21 03:24 EST   -0.33   0.84    1  251    2  34.0  40.6 1015.8 -9.9 -9.999 -99.9 -99.99 -9.99
2019/02/21 03:30 EST   -0.35   0.82    1  256    3  34.0  40.6 1015.8 -9.9 -9.999 -99.9 -99.99 -9.99
2019/02/21 03:36 EST   -0.38   0.79    2  265    2  34.0  40.6 1015.8 -9.9 -9.999 -99.9 -99.99 -9.99
2019/02/21 03:42 EST   -0.40   0.76    2  240    3  34.0  40.6 1015.8 -9.9 -9.999 -99.9 -99.99 -9.99
2019/02/21 03:48 EST   -0.41   0.74    2  223    3  34.0  40.6 1015.9 -9.9 -9.999 -99.9 -99.99 -9.99
2019/02/21 03:54 EST   -0.42   0.71    2  237    3  34.0  40.6 1015.9 -9.9 -9.999 -99.9 -99.99 -9.99
2019/02/21 04:00 EST   -0.42   0.69 -999 -999 -999 -99.9 -99.9 -999.9 -9.9 -9.999 -99.9 -99.99 -9.99
2019/02/21 04:06 EST   -0.42   0.67    3  187    4  34.2  40.6 1015.7 -9.9 -9.999 -99.9 -99.99 -9.99
2019/02/21 04:12 EST   -0.41   0.66    4  190    4  34.2  40.6 1015.8 -9.9 -9.999 -99.9 -99.99 -9.99
2019/02/21 04:18 EST   -0.40   0.64    3  203    4  34.2  40.6 1015.7 -9.9 -9.999 -99.9 -99.99 -9.99
2019/02/21 04:24 EST   -0.38   0.63    3  212    4  34.0  40.6 1015.9 -9.9 -9.999 -99.9 -99.99 -9.99
2019/02/21 04:30 EST   -0.35   0.62    3  197    4  34.0  40.6 1015.8 -9.9 -9.999 -99.9 -99.99 -9.99
2019/02/21 04:36 EST   -0.31   0.62    3  193    4  34.0  40.6 1015.8 -9.9 -9.999 -99.9 -99.99 -9.99
2019/02/21 04:42 EST   -0.27   0.62    3  220    4  34.0  40.6 1016.1 -9.9 -9.999 -99.9 -99.99 -9.99
2019/02/21 04:48 EST   -0.22   0.63    3  205    5  34.0  40.6 1016.2 -9.9 -9.999 -99.9 -99.99 -9.99
2019/02/21 04:54 EST   -0.16   0.66    4  195    4  34.0  40.6 1016.0 -9.9 -9.999 -99.9 -99.99 -9.99
2019/02/21 05:00 EST   -0.10   0.70    2  203    3  34.0  40.6 1016.1 -9.9 -9.999 -99.9 -99.99 -9.99
2019/02/21 05:06 EST   -0.02   0.75    2  203    4  34.0  40.6 1016.1 -9.9 -9.999 -99.9 -99.99 -9.99
2019/02/21 05:12 EST    0.05   0.80    2  232    3  34.0  40.6 1016.4 -9.9 -9.999 -99.9 -99.99 -9.99
2019/02/21 05:18 EST    0.14   0.87    2  228    2  33.8  40.6 1016.4 -9.9 -9.999 -99.9 -99.99 -9.99
2019/02/21 05:24 EST    0.23   0.96    1  219    2  34.0  40.6 1016.4 -9.9 -9.999 -99.9 -99.99 -9.99
2019/02/21 05:30 EST    0.32   1.05    0  274    1  34.0  40.6 1016.1 -9.9 -9.999 -99.9 -99.99 -9.99
2019/02/21 05:36 EST    0.42   1.14    0  288    2  34.0  40.6 1016.1 -9.9 -9.999 -99.9 -99.99 -9.99
2019/02/21 05:42 EST    0.52   1.24    1  279    1  34.2  40.6 1016.1 -9.9 -9.999 -99.9 -99.99 -9.99
2019/02/21 05:48 EST    0.63   1.36    0  198    1  34.2  40.6 1016.1 -9.9 -9.999 -99.9 -99.99 -9.99
2019/02/21 05:54 EST    0.74   1.47    1  277    2  34.2  40.6 1016.1 -9.9 -9.999 -99.9 -99.99 -9.99
2019/02/21 06:00 EST    0.85   1.59    1  260    2  34.2  40.6 1016.3 -9.9 -9.999 -99.9 -99.99 -9.99
2019/02/21 06:06 EST    0.96   1.71    1  214    1  34.2  40.6 1016.3 -9.9 -9.999 -99.9 -99.99 -9.99
2019/02/21 06:12 EST    1.08   1.83    1  243    1  34.0  40.6 1016.4 -9.9 -9.999 -99.9 -99.99 -9.99
2019/02/21 06:18 EST    1.19   1.95    1  234    2  34.2  40.6 1016.5 -9.9 -9.999 -99.9 -99.99 -9.99
2019/02/21 06:24 EST    1.31   2.08    1  255    2  34.2  40.6 1016.7 -9.9 -9.999 -99.9 -99.99 -9.99
2019/02/21 06:30 EST    1.42   2.19    1  248    2  34.0  40.6 1016.6 -9.9 -9.999 -99.9 -99.99 -9.99
2019/02/21 06:36 EST    1.53   2.30    1  237    1  34.2  40.6 1016.7 -9.9 -9.999 -99.9 -99.99 -9.99
2019/02/21 06:42 EST    1.64   2.41    0  207    2  34.2  40.6 1016.4 -9.9 -9.999 -99.9 -99.99 -9.99
2019/02/21 06:48 EST    1.75   2.51    2  249    3  34.2  40.6 1016.5 -9.9 -9.999 -99.9 -99.99 -9.99
2019/02/21 06:54 EST    1.85   2.60    2  258    2  34.2  40.6 1016.6 -9.9 -9.999 -99.9 -99.99 -9.99
2019/02/21 07:00 EST    1.95   2.70    1  246    2  34.2  40.6 1016.4 -9.9 -9.999 -99.9 -99.99 -9.99
2019/02/21 07:06 EST    2.05   2.78    2  272    3  34.3  40.6 1016.5 -9.9 -9.999 -99.9 -99.99 -9.99
2019/02/21 07:12 EST    2.14   2.85    2  261    2  34.3  40.6 1016.6 -9.9 -9.999 -99.9 -99.99 -9.99
2019/02/21 07:18 EST    2.23   2.92    2  251    3  34.3  40.6 1016.7 -9.9 -9.999 -99.9 -99.99 -9.99
2019/02/21 07:24 EST    2.32   3.00    3  277    4  34.3  40.6 1016.8 -9.9 -9.999 -99.9 -99.99 -9.99
2019/02/21 07:30 EST    2.40   3.07    3  276    3  34.3  40.6 1016.7 -9.9 -9.999 -99.9 -99.99 -9.99
2019/02/21 07:36 EST    2.48   3.14    2  214    3  34.5  40.6 1016.5 -9.9 -9.999 -99.9 -99.99 -9.99
2019/02/21 07:42 EST    2.55   3.19    3  237    4  34.7  40.6 1016.7 -9.9 -9.999 -99.9 -99.99 -9.99
2019/02/21 07:48 EST    2.62   3.24    4  239    5  34.7  40.6 1017.1 -9.9 -9.999 -99.9 -99.99 -9.99
2019/02/21 07:54 EST    2.68   3.30    4  235    5  34.7  40.6 1017.3 -9.9 -9.999 -99.9 -99.99 -9.99
2019/02/21 08:00 EST    2.74   3.36    3  249    4  34.9  40.6 1017.2 -9.9 -9.999 -99.9 -99.99 -9.99
2019/02/21 08:06 EST    2.80   3.41    3  241    4  35.1  40.6 1017.4 -9.9 -9.999 -99.9 -99.99 -9.99
2019/02/21 08:12 EST    2.85   3.45    4  261    5  35.1  40.6 1017.6 -9.9 -9.999 -99.9 -99.99 -9.99
2019/02/21 08:18 EST    2.89   3.49    3  230    4  35.4  40.6 1017.8 -9.9 -9.999 -99.9 -99.99 -9.99
2019/02/21 08:24 EST    2.93   3.53    2  232    5  36.1  40.6 1017.8 -9.9 -9.999 -99.9 -99.99 -9.99
2019/02/21 08:30 EST    2.97   3.56    4  247    4  36.0  40.6 1017.8 -9.9 -9.999 -99.9 -99.99 -9.99
2019/02/21 08:36 EST    3.00   3.59    3  243    5  36.0  40.6 1017.9 -9.9 -9.999 -99.9 -99.99 -9.99
2019/02/21 08:42 EST    3.03   3.62    3  230    6  36.1  40.6 1017.8 -9.9 -9.999 -99.9 -99.99 -9.99
2019/02/21 08:48 EST    3.05   3.65    3  190    5  35.8  40.6 1017.9 -9.9 -9.999 -99.9 -99.99 -9.99
2019/02/21 08:54 EST    3.07   3.67    4  190    5  36.3  40.6 1017.8 -9.9 -9.999 -99.9 -99.99 -9.99
2019/02/21 09:00 EST    3.08   3.68    3  242    4  36.7  40.6 1018.0 -9.9 -9.999 -99.9 -99.99 -9.99
2019/02/21 09:06 EST    3.08   3.70    2  247    3  36.7  40.6 1018.0 -9.9 -9.999 -99.9 -99.99 -9.99
2019/02/21 09:12 EST    3.09   3.71    2  258    2  36.7  40.6 1018.0 -9.9 -9.999 -99.9 -99.99 -9.99
2019/02/21 09:18 EST    3.08   3.71    1  258    4  37.0  40.6 1018.0 -9.9 -9.999 -99.9 -99.99 -9.99
2019/02/21 09:24 EST    3.08   3.70    2  295    4  37.4  40.6 1018.0 -9.9 -9.999 -99.9 -99.99 -9.99
2019/02/21 09:30 EST    3.06   3.70    3  249    5  37.8  40.6 1018.1 -9.9 -9.999 -99.9 -99.99 -9.99
2019/02/21 09:36 EST    3.05   3.71    2  285    3  37.6  40.6 1018.0 -9.9 -9.999 -99.9 -99.99 -9.99
2019/02/21 09:42 EST    3.02   3.70    2  272    3  37.8  40.6 1017.9 -9.9 -9.999 -99.9 -99.99 -9.99
2019/02/21 09:48 EST    3.00   3.68    2  285    4  37.9  40.6 1018.0 -9.9 -9.999 -99.9 -99.99 -9.99
2019/02/21 09:54 EST    2.97   3.66    3  274    5  37.9  40.6 1018.0 -9.9 -9.999 -99.9 -99.99 -9.99
2019/02/21 10:00 EST    2.93   3.65    3  245    4  38.1  40.6 1018.2 -9.9 -9.999 -99.9 -99.99 -9.99
2019/02/21 10:06 EST    2.89   3.62    3  237    4  38.3  40.6 1018.3 -9.9 -9.999 -99.9 -99.99 -9.99
2019/02/21 10:12 EST    2.85   3.58    2  263    2  38.8  40.6 1018.4 -9.9 -9.999 -99.9 -99.99 -9.99
2019/02/21 10:18 EST    2.80   3.53    2  196    4  39.2  40.6 1018.4 -9.9 -9.999 -99.9 -99.99 -9.99
2019/02/21 10:24 EST    2.75   3.49    4  172    4  38.7  40.6 1018.5 -9.9 -9.999 -99.9 -99.99 -9.99
2019/02/21 10:30 EST    2.70   3.46    3  160    3  38.5  40.6 1018.5 -9.9 -9.999 -99.9 -99.99 -9.99
2019/02/21 10:36 EST    2.65   3.41    1  146    2  39.0  40.6 1018.4 -9.9 -9.999 -99.9 -99.99 -9.99
2019/02/21 10:42 EST    2.59   3.36    1  181    2  39.4  40.6 1018.5 -9.9 -9.999 -99.9 -99.99 -9.99
2019/02/21 10:48 EST    2.53   3.30    0  173    0  41.0  40.6 1018.6 -9.9 -9.999 -99.9 -99.99 -9.99
2019/02/21 10:54 EST    2.47   3.24    0  173    3  41.4  40.5 1018.6 -9.9 -9.999 -99.9 -99.99 -9.99
2019/02/21 11:00 EST    2.40   3.18 -999 -999 -999 -99.9 -99.9 -999.9 -9.9 -9.999 -99.9 -99.99 -9.99
2019/02/21 11:06 EST    2.34   3.12    1  269    3  41.4  40.5 1018.7 -9.9 -9.999 -99.9 -99.99 -9.99
2019/02/21 11:12 EST    2.27   3.06    3  176    4  40.8  40.5 1018.8 -9.9 -9.999 -99.9 -99.99 -9.99
2019/02/21 11:18 EST    2.20   3.00    3  176    4  40.8  40.5 1018.8 -9.9 -9.999 -99.9 -99.99 -9.99
2019/02/21 11:24 EST    2.14   2.93    3  182    4  40.6  40.5 1018.7 -9.9 -9.999 -99.9 -99.99 -9.99
2019/02/21 11:30 EST    2.07   2.86    3  176    4  40.8  40.5 1018.7 -9.9 -9.999 -99.9 -99.99 -9.99
2019/02/21 11:36 EST    2.00   2.82    2  175    3  40.8  40.5 1018.6 -9.9 -9.999 -99.9 -99.99 -9.99
2019/02/21 11:42 EST    1.93   2.75    2  170    2  41.2  40.6 1018.6 -9.9 -9.999 -99.9 -99.99 -9.99
2019/02/21 11:48 EST    1.86   2.67    0  195    2  41.9  40.6 1018.5 -9.9 -9.999 -99.9 -99.99 -9.99
2019/02/21 11:54 EST    1.79   2.61    1  187    1  42.3  40.6 1018.4 -9.9 -9.999 -99.9 -99.99 -9.99
2019/02/21 12:00 EST    1.73   2.56    1  207    2  42.4  40.6 1018.3 -9.9 -9.999 -99.9 -99.99 -9.99
2019/02/21 12:06 EST    1.66   2.50    2  180    4  42.6  40.6 1018.4 -9.9 -9.999 -99.9 -99.99 -9.99
2019/02/21 12:12 EST    1.59   2.43    4  168    4  42.3  40.6 1018.3 -9.9 -9.999 -99.9 -99.99 -9.99
2019/02/21 12:18 EST    1.52   2.38    4  173    5  42.1  40.6 1018.1 -9.9 -9.999 -99.9 -99.99 -9.99
2019/02/21 12:24 EST    1.45   2.31    4  175    4  42.1  40.6 1018.0 -9.9 -9.999 -99.9 -99.99 -9.99
2019/02/21 12:30 EST    1.38   2.25    4  177    4  42.6  40.6 1018.0 -9.9 -9.999 -99.9 -99.99 -9.99
2019/02/21 12:36 EST    1.32   2.19    4  170    4  43.0  40.6 1017.9 -9.9 -9.999 -99.9 -99.99 -9.99
2019/02/21 12:42 EST    1.25   2.13    3  171    4  43.3  40.6 1017.8 -9.9 -9.999 -99.9 -99.99 -9.99
2019/02/21 12:48 EST    1.18   2.08    3  172    4  44.1  40.6 1017.8 -9.9 -9.999 -99.9 -99.99 -9.99
2019/02/21 12:54 EST    1.12   2.02    4  167    4  44.2  40.6 1017.8 -9.9 -9.999 -99.9 -99.99 -9.99
2019/02/21 13:00 EST    1.05   1.96    3  165    4  44.2  40.6 1017.7 -9.9 -9.999 -99.9 -99.99 -9.99
2019/02/21 13:06 EST    0.99   1.91    3  175    4  44.8  40.6 1017.7 -9.9 -9.999 -99.9 -99.99 -9.99
2019/02/21 13:12 EST    0.92   1.86    4  173    4  44.8  40.6 1017.7 -9.9 -9.999 -99.9 -99.99 -9.99
2019/02/21 13:18 EST    0.86   1.80    2  170    3  45.3  40.6 1017.7 -9.9 -9.999 -99.9 -99.99 -9.99
2019/02/21 13:24 EST    0.79   1.75    2  176    4  46.4  40.6 1017.7 -9.9 -9.999 -99.9 -99.99 -9.99
2019/02/21 13:30 EST    0.73   1.70    2  222    4  48.4  40.6 1017.7 -9.9 -9.999 -99.9 -99.99 -9.99
2019/02/21 13:36 EST    0.67   1.64    3  266    6  50.7  40.6 1017.5 -9.9 -9.999 -99.9 -99.99 -9.99
2019/02/21 13:42 EST    0.61   1.59    4  266    8  51.6  40.6 1017.5 -9.9 -9.999 -99.9 -99.99 -9.99
2019/02/21 13:48 EST    0.55   1.55    4  276    9  52.0  40.6 1017.5 -9.9 -9.999 -99.9 -99.99 -9.99
2019/02/21 13:54 EST    0.49   1.50    5  297    8  52.9  40.6 1017.5 -9.9 -9.999 -99.9 -99.99 -9.99
2019/02/21 14:00 EST    0.43   1.46    5  274    8  52.7  40.6 1017.4 -9.9 -9.999 -99.9 -99.99 -9.99
2019/02/21 14:06 EST    0.37   1.41    5  282    9  53.1  40.6 1017.4 -9.9 -9.999 -99.9 -99.99 -9.99
2019/02/21 14:12 EST    0.32   1.36    7  292   11  53.2  40.6 1017.5 -9.9 -9.999 -99.9 -99.99 -9.99
2019/02/21 14:18 EST    0.26   1.32    8  301   11  53.6  40.6 1017.5 -9.9 -9.999 -99.9 -99.99 -9.99
2019/02/21 14:24 EST    0.21   1.27    6  290    9  53.8  40.6 1017.6 -9.9 -9.999 -99.9 -99.99 -9.99
2019/02/21 14:30 EST    0.16   1.23    5  283    7  54.0  40.6 1017.5 -9.9 -9.999 -99.9 -99.99 -9.99
2019/02/21 14:36 EST    0.11   1.19    3  291    7  54.0  40.6 1017.5 -9.9 -9.999 -99.9 -99.99 -9.99
2019/02/21 14:42 EST    0.06   1.15    5  302    8  54.3  40.6 1017.4 -9.9 -9.999 -99.9 -99.99 -9.99
2019/02/21 14:48 EST    0.01   1.11    5  307    7  54.7  40.6 1017.4 -9.9 -9.999 -99.9 -99.99 -9.99
2019/02/21 14:54 EST   -0.04   1.07    5  300    8  54.9  40.6 1017.4 -9.9 -9.999 -99.9 -99.99 -9.99
2019/02/21 15:00 EST   -0.09   1.04    3  307    4  55.4  40.6 1017.5 -9.9 -9.999 -99.9 -99.99 -9.99
2019/02/21 15:06 EST   -0.13   1.00    2  340    6  55.9  40.6 1017.5 -9.9 -9.999 -99.9 -99.99 -9.99
2019/02/21 15:12 EST   -0.18   0.97    6  314   10  56.3  40.6 1017.5 -9.9 -9.999 -99.9 -99.99 -9.99
2019/02/21 15:18 EST   -0.22   0.93    5  328    8  56.8  40.6 1017.5 -9.9 -9.999 -99.9 -99.99 -9.99
2019/02/21 15:24 EST   -0.26   0.90    4  318    8  57.2  40.6 1017.5 -9.9 -9.999 -99.9 -99.99 -9.99
2019/02/21 15:30 EST   -0.29   0.87    5  327    9  57.6  40.6 1017.5 -9.9 -9.999 -99.9 -99.99 -9.99
2019/02/21 15:36 EST   -0.33   0.83    6  302   10  57.4  40.6 1017.7 -9.9 -9.999 -99.9 -99.99 -9.99
2019/02/21 15:42 EST   -0.36   0.80    4  317    9  57.7  40.6 1017.8 -9.9 -9.999 -99.9 -99.99 -9.99
2019/02/21 15:48 EST   -0.39   0.77    4  304    8  58.1  40.6 1017.7 -9.9 -9.999 -99.9 -99.99 -9.99
2019/02/21 15:54 EST   -0.41   0.74    5  320    9  58.1  40.6 1017.6 -9.9 -9.999 -99.9 -99.99 -9.99
2019/02/21 16:00 EST   -0.44   0.71 -999 -999 -999 -99.9 -99.9 -999.9 -9.9 -9.999 -99.9 -99.99 -9.99
2019/02/21 16:06 EST   -0.45   0.68    6  304   12  58.1  40.6 1017.6 -9.9 -9.999 -99.9 -99.99 -9.99
2019/02/21 16:12 EST   -0.46   0.65    6  310   10  58.5  40.6 1017.6 -9.9 -9.999 -99.9 -99.99 -9.99
2019/02/21 16:18 EST   -0.47   0.63    6  301   11  58.3  40.6 1017.6 -9.9 -9.999 -99.9 -99.99 -9.99
2019/02/21 16:24 EST   -0.47   0.60    7  313   11  58.5  40.6 1017.7 -9.9 -9.999 -99.9 -99.99 -9.99
2019/02/21 16:30 EST   -0.47   0.59    7  323   11  58.6  40.8 1017.8 -9.9 -9.999 -99.9 -99.99 -9.99
2019/02/21 16:36 EST   -0.46   0.57    6  308   12  58.5  40.8 1017.8 -9.9 -9.999 -99.9 -99.99 -9.99
2019/02/21 16:42 EST   -0.44   0.56    6  315   13  58.5  40.8 1017.8 -9.9 -9.999 -99.9 -99.99 -9.99
2019/02/21 16:48 EST   -0.42   0.54    6  312   12  57.9  40.8 1018.0 -9.9 -9.999 -99.9 -99.99 -9.99
2019/02/21 16:54 EST   -0.39   0.53    7  319   10  57.9  40.8 1018.2 -9.9 -9.999 -99.9 -99.99 -9.99
2019/02/21 17:00 EST   -0.35   0.53 -999 -999 -999 -99.9 -99.9 -999.9 -9.9 -9.999 -99.9 -99.99 -9.99
2019/02/21 17:06 EST   -0.31   0.54    6  335   10  57.7  40.8 1018.4 -9.9 -9.999 -99.9 -99.99 -9.99
2019/02/21 17:12 EST   -0.26   0.54    5  318    9  57.4  40.8 1018.5 -9.9 -9.999 -99.9 -99.99 -9.99
2019/02/21 17:18 EST   -0.20   0.58    6  312    8  57.2  40.8 1018.5 -9.9 -9.999 -99.9 -99.99 -9.99
2019/02/21 17:24 EST   -0.13   0.61    4  320    5  56.8  40.8 1018.8 -9.9 -9.999 -99.9 -99.99 -9.99
2019/02/21 17:30 EST   -0.06   0.67    3  314    4  56.7  40.8 1018.8 -9.9 -9.999 -99.9 -99.99 -9.99
2019/02/21 17:36 EST    0.02   0.75    3  315    6  56.5  40.8 1018.7 -9.9 -9.999 -99.9 -99.99 -9.99
2019/02/21 17:42 EST    0.11   0.83    2  303    5  56.5  40.8 1018.7 -9.9 -9.999 -99.9 -99.99 -9.99
2019/02/21 17:48 EST    0.20   0.93    3  297    6  56.1  40.8 1019.1 -9.9 -9.999 -99.9 -99.99 -9.99
2019/02/21 17:54 EST    0.29   1.04    3  314    5  56.3  40.8 1019.0 -9.9 -9.999 -99.9 -99.99 -9.99
2019/02/21 18:00 EST    0.39   1.15    4  288    6  55.6  40.8 1019.3 -9.9 -9.999 -99.9 -99.99 -9.99
2019/02/21 18:06 EST    0.50   1.26    3  291    4  55.9  40.8 1019.4 -9.9 -9.999 -99.9 -99.99 -9.99
2019/02/21 18:12 EST    0.60   1.39    1  257    3  55.6  40.8 1019.4 -9.9 -9.999 -99.9 -99.99 -9.99
2019/02/21 18:18 EST    0.71   1.52    1  257    1  54.7  40.8 1019.6 -9.9 -9.999 -99.9 -99.99 -9.99
2019/02/21 18:24 EST    0.83   1.64    0  220    2  54.5  40.8 1019.6 -9.9 -9.999 -99.9 -99.99 -9.99
2019/02/21 18:30 EST    0.94   1.77    1  237    2  54.5  40.8 1019.8 -9.9 -9.999 -99.9 -99.99 -9.99
2019/02/21 18:36 EST    1.06   1.90    1  248    3  54.0  40.8 1019.9 -9.9 -9.999 -99.9 -99.99 -9.99
2019/02/21 18:42 EST    1.17   2.02    0  346    2  54.0  41.2 1019.9 -9.9 -9.999 -99.9 -99.99 -9.99
2019/02/21 18:48 EST    1.29   2.16    1  349    2  54.3  41.4 1019.8 -9.9 -9.999 -99.9 -99.99 -9.99
2019/02/21 18:54 EST    1.40   2.28    1  309    6  53.8  41.4 1020.2 -9.9 -9.999 -99.9 -99.99 -9.99
2019/02/21 19:00 EST    1.51   2.40    2  317    4  54.9  41.2 1020.3 -9.9 -9.999 -99.9 -99.99 -9.99
2019/02/21 19:06 EST    1.62   2.51    2  315    3  54.1  41.2 1020.4 -9.9 -9.999 -99.9 -99.99 -9.99
2019/02/21 19:12 EST    1.73   2.61    2  314    4  54.5  41.4 1020.2 -9.9 -9.999 -99.9 -99.99 -9.99
2019/02/21 19:18 EST    1.84   2.72    3  318    3  54.7  41.4 1020.2 -9.9 -9.999 -99.9 -99.99 -9.99
2019/02/21 19:24 EST    1.94   2.82    2  315    4  54.3  41.4 1020.5 -9.9 -9.999 -99.9 -99.99 -9.99
2019/02/21 19:30 EST    2.04   2.90    2  302    5  54.5  41.4 1020.7 -9.9 -9.999 -99.9 -99.99 -9.99
2019/02/21 19:36 EST    2.13   2.98    2  322    4  54.5  41.4 1020.7 -9.9 -9.999 -99.9 -99.99 -9.99
2019/02/21 19:42 EST    2.23   3.05    1  337    2  54.3  41.4 1020.7 -9.9 -9.999 -99.9 -99.99 -9.99
2019/02/21 19:48 EST    2.31   3.13    2  279    4  53.6  41.4 1020.9 -9.9 -9.999 -99.9 -99.99 -9.99
2019/02/21 19:54 EST    2.39   3.20    3  299    5  53.2  41.4 1020.8 -9.9 -9.999 -99.9 -99.99 -9.99
2019/02/21 20:00 EST    2.47   3.27    2  300    4  54.0  41.4 1020.9 -9.9 -9.999 -99.9 -99.99 -9.99
2019/02/21 20:06 EST    2.55   3.34    2  266    5  53.2  41.4 1021.0 -9.9 -9.999 -99.9 -99.99 -9.99
2019/02/21 20:12 EST    2.62   3.40    2  258    3  53.6  41.4 1021.2 -9.9 -9.999 -99.9 -99.99 -9.99
2019/02/21 20:18 EST    2.68   3.46    1  307    4  52.7  41.5 1021.3 -9.9 -9.999 -99.9 -99.99 -9.99
2019/02/21 20:24 EST    2.74   3.51    2  323    4  53.1  41.5 1021.4 -9.9 -9.999 -99.9 -99.99 -9.99
2019/02/21 20:30 EST    2.80   3.56    2  304    4  53.1  41.5 1021.5 -9.9 -9.999 -99.9 -99.99 -9.99
2019/02/21 20:36 EST    2.85   3.61    3  336    6  53.4  41.5 1021.6 -9.9 -9.999 -99.9 -99.99 -9.99
2019/02/21 20:42 EST    2.90   3.66    3  339    5  53.4  41.5 1021.4 -9.9 -9.999 -99.9 -99.99 -9.99
2019/02/21 20:48 EST    2.94   3.70    3  342    7  53.8  41.5 1021.5 -9.9 -9.999 -99.9 -99.99 -9.99
2019/02/21 20:54 EST    2.98   3.73    4  331    7  54.3  41.5 1021.6 -9.9 -9.999 -99.9 -99.99 -9.99
2019/02/21 21:00 EST    3.01   3.77    5  346    7  54.3  41.5 1021.5 -9.9 -9.999 -99.9 -99.99 -9.99
2019/02/21 21:06 EST    3.04   3.79    4  352   10  54.1  41.5 1021.8 -9.9 -9.999 -99.9 -99.99 -9.99
2019/02/21 21:12 EST    3.06   3.82    6  358   10  54.3  41.5 1021.8 -9.9 -9.999 -99.9 -99.99 -9.99
2019/02/21 21:18 EST    3.08   3.85    5  356    9  54.3  41.5 1021.8 -9.9 -9.999 -99.9 -99.99 -9.99
2019/02/21 21:24 EST    3.09   3.86    5    1    8  54.1  41.5 1021.7 -9.9 -9.999 -99.9 -99.99 -9.99
2019/02/21 21:30 EST    3.10   3.88    4  340   10  54.1  41.5 1022.0 -9.9 -9.999 -99.9 -99.99 -9.99
2019/02/21 21:36 EST    3.11   3.89    5    6   11  54.1  41.5 1021.9 -9.9 -9.999 -99.9 -99.99 -9.99
2019/02/21 21:42 EST    3.11   3.90    6    4   11  54.1  41.5 1021.8 -9.9 -9.999 -99.9 -99.99 -9.99
2019/02/21 21:48 EST    3.10   3.90    4   13    6  54.1  41.5 1021.9 -9.9 -9.999 -99.9 -99.99 -9.99
2019/02/21 21:54 EST    3.09   3.89    3   12    8  54.1  41.5 1022.2 -9.9 -9.999 -99.9 -99.99 -9.99
2019/02/21 22:00 EST    3.07   3.88    4  327    8  53.8  41.5 1022.3 -9.9 -9.999 -99.9 -99.99 -9.99
2019/02/21 22:06 EST    3.05   3.88    3  327    6  53.8  41.5 1022.3 -9.9 -9.999 -99.9 -99.99 -9.99
2019/02/21 22:12 EST    3.03   3.86    3  337    8  52.9  41.5 1022.3 -9.9 -9.999 -99.9 -99.99 -9.99
2019/02/21 22:18 EST    3.00   3.84    3  353    9  53.6  41.5 1022.4 -9.9 -9.999 -99.9 -99.99 -9.99
2019/02/21 22:24 EST    2.97   3.81    4  357    7  53.4  41.5 1022.6 -9.9 -9.999 -99.9 -99.99 -9.99
2019/02/21 22:30 EST    2.93   3.79    3   19    8  53.1  41.5 1022.6 -9.9 -9.999 -99.9 -99.99 -9.99
2019/02/21 22:36 EST    2.89   3.77    5    5    8  53.1  41.5 1022.9 -9.9 -9.999 -99.9 -99.99 -9.99
2019/02/21 22:42 EST    2.85   3.72    6    1    9  52.9  41.5 1023.1 -9.9 -9.999 -99.9 -99.99 -9.99
2019/02/21 22:48 EST    2.80   3.66    4    3   10  52.7  41.5 1023.0 -9.9 -9.999 -99.9 -99.99 -9.99
2019/02/21 22:54 EST    2.75   3.61    6    5   10  52.5  41.5 1022.9 -9.9 -9.999 -99.9 -99.99 -9.99
2019/02/21 23:00 EST    2.70   3.56    6    6   12  52.3  41.5 1022.8 -9.9 -9.999 -99.9 -99.99 -9.99
2019/02/21 23:06 EST    2.64   3.51    6    6   12  52.3  41.5 1022.9 -9.9 -9.999 -99.9 -99.99 -9.99
2019/02/21 23:12 EST    2.58   3.44    7  360   12  52.5  41.5 1022.9 -9.9 -9.999 -99.9 -99.99 -9.99
2019/02/21 23:18 EST    2.52   3.38    5    9   10  52.3  41.5 1023.0 -9.9 -9.999 -99.9 -99.99 -9.99
2019/02/21 23:24 EST    2.46   3.32    5   14   10  52.2  41.5 1023.1 -9.9 -9.999 -99.9 -99.99 -9.99
2019/02/21 23:30 EST    2.40   3.26    8    8   13  52.0  41.5 1023.1 -9.9 -9.999 -99.9 -99.99 -9.99
2019/02/21 23:36 EST    2.33   3.19    6    7   11  52.0  41.5 1023.0 -9.9 -9.999 -99.9 -99.99 -9.99
2019/02/21 23:42 EST    2.27   3.14    6    4   10  51.8  41.5 1023.0 -9.9 -9.999 -99.9 -99.99 -9.99
2019/02/21 23:48 EST    2.20   3.10    5  348   12  52.2  41.5 1023.1 -9.9 -9.999 -99.9 -99.99 -9.99
2019/02/21 23:54 EST    2.14   3.04    7  341    9  52.5  41.5 1023.2 -9.9 -9.999 -99.9 -99.99 -9.99
2019/02/22 00:00 EST    2.07   2.96    5  318    9  52.2  41.5 1023.6 -9.9 -9.999 -99.9 -99.99 -9.99
2019/02/22 00:06 EST    2.00   2.89    4  282    5  51.3  41.5 1023.9 -9.9 -9.999 -99.9 -99.99 -9.99
2019/02/22 00:12 EST    1.93   2.85    1  271    3  50.7  41.5 1023.9 -9.9 -9.999 -99.9 -99.99 -9.99
2019/02/22 00:18 EST    1.87   2.78    2  292    7  50.5  41.5 1023.9 -9.9 -9.999 -99.9 -99.99 -9.99
2019/02/22 00:24 EST    1.80   2.70    2  327    6  51.1  41.5 1023.8 -9.9 -9.999 -99.9 -99.99 -9.99
2019/02/22 00:30 EST    1.73   2.65    5  321   12  51.1  41.5 1024.0 -9.9 -9.999 -99.9 -99.99 -9.99
2019/02/22 00:36 EST    1.66   2.59    8  335   13  52.0  41.5 1023.8 -9.9 -9.999 -99.9 -99.99 -9.99
2019/02/22 00:42 EST    1.59   2.53    6  327   12  52.3  41.5 1023.8 -9.9 -9.999 -99.9 -99.99 -9.99
2019/02/22 00:48 EST    1.53   2.46    5  353   11  52.3  41.5 1023.5 -9.9 -9.999 -99.9 -99.99 -9.99
2019/02/22 00:54 EST    1.46   2.39    7  343   10  52.3  41.4 1023.5 -9.9 -9.999 -99.9 -99.99 -9.99
2019/02/22 01:00 EST    1.39   2.33    5  334   11  52.2  41.4 1024.1 -9.9 -9.999 -99.9 -99.99 -9.99
2019/02/22 01:06 EST    1.32   2.28    6  330   11  52.3  41.4 1024.2 -9.9 -9.999 -99.9 -99.99 -9.99
2019/02/22 01:12 EST    1.26   2.22    6  327   14  52.0  41.4 1024.1 -9.9 -9.999 -99.9 -99.99 -9.99
2019/02/22 01:18 EST    1.19   2.15    8  323   18  51.8  41.4 1024.1 -9.9 -9.999 -99.9 -99.99 -9.99
2019/02/22 01:24 EST    1.13   2.09   10  329   16  51.6  41.4 1024.3 -9.9 -9.999 -99.9 -99.99 -9.99
2019/02/22 01:30 EST    1.06   2.02    9  322   12  51.1  41.4 1024.5 -9.9 -9.999 -99.9 -99.99 -9.99
2019/02/22 01:36 EST    1.00   1.99    5  318   11  50.7  41.4 1024.6 -9.9 -9.999 -99.9 -99.99 -9.99
2019/02/22 01:42 EST    0.93   1.93    5  320    8  50.5  41.4 1024.7 -9.9 -9.999 -99.9 -99.99 -9.99
2019/02/22 01:48 EST    0.87   1.86    3  317    5  50.2  41.4 1024.8 -9.9 -9.999 -99.9 -99.99 -9.99
2019/02/22 01:54 EST    0.80   1.80    4  292    4  49.6  41.4 1024.7 -9.9 -9.999 -99.9 -99.99 -9.99
2019/02/22 02:00 EST    0.74   1.76    1  258    3  49.3  41.4 1024.7 -9.9 -9.999 -99.9 -99.99 -9.99
2019/02/22 02:06 EST    0.68   1.71    2  258    3  48.9  41.4 1024.7 -9.9 -9.999 -99.9 -99.99 -9.99
2019/02/22 02:12 EST    0.62   1.65    1  252    2  48.6  41.4 1024.8 -9.9 -9.999 -99.9 -99.99 -9.99
2019/02/22 02:18 EST    0.56   1.62    0  218    1  48.2  41.4 1024.9 -9.9 -9.999 -99.9 -99.99 -9.99
2019/02/22 02:24 EST    0.50   1.57    1  132    2  48.2  41.4 1024.9 -9.9 -9.999 -99.9 -99.99 -9.99
2019/02/22 02:30 EST    0.44   1.53    1  156    1  48.2  41.4 1024.8 -9.9 -9.999 -99.9 -99.99 -9.99
2019/02/22 02:36 EST    0.39   1.48    1  146    1  48.0  41.4 1024.7 -9.9 -9.999 -99.9 -99.99 -9.99
2019/02/22 02:42 EST    0.33   1.43    1  166    1  48.0  41.4 1024.7 -9.9 -9.999 -99.9 -99.99 -9.99
2019/02/22 02:48 EST    0.28   1.40    1  153    1  47.7  41.4 1024.6 -9.9 -9.999 -99.9 -99.99 -9.99
2019/02/22 02:54 EST    0.22   1.36    1  156    1  47.1  41.4 1024.6 -9.9 -9.999 -99.9 -99.99 -9.99
2019/02/22 03:00 EST    0.17   1.32    1  156    1  46.0  41.4 1024.6 -9.9 -9.999 -99.9 -99.99 -9.99
2019/02/22 03:06 EST    0.12   1.28    1  146    1  45.9  41.4 1024.6 -9.9 -9.999 -99.9 -99.99 -9.99
2019/02/22 03:12 EST    0.07   1.24    0  163    1  45.5  41.4 1024.5 -9.9 -9.999 -99.9 -99.99 -9.99
2019/02/22 03:18 EST    0.02   1.21    1  133    2  45.0  41.4 1024.3 -9.9 -9.999 -99.9 -99.99 -9.99
2019/02/22 03:24 EST   -0.03   1.17    1  178    1  45.1  41.4 1024.3 -9.9 -9.999 -99.9 -99.99 -9.99
2019/02/22 03:30 EST   -0.07   1.13    0  208    0  44.6  41.4 1024.5 -9.9 -9.999 -99.9 -99.99 -9.99
2019/02/22 03:36 EST   -0.12   1.09    0  208    2  44.4  41.4 1024.6 -9.9 -9.999 -99.9 -99.99 -9.99
2019/02/22 03:42 EST   -0.16   1.06    1  301    2  44.2  41.4 1024.6 -9.9 -9.999 -99.9 -99.99 -9.99
2019/02/22 03:48 EST   -0.20   1.03    0  306    1  44.4  41.4 1024.7 -9.9 -9.999 -99.9 -99.99 -9.99
2019/02/22 03:54 EST   -0.24   1.00    1  280    1  43.9  41.4 1025.0 -9.9 -9.999 -99.9 -99.99 -9.99
2019/02/22 04:00 EST   -0.27   0.98    1  301    1  43.5  41.4 1024.8 -9.9 -9.999 -99.9 -99.99 -9.99
2019/02/22 04:06 EST   -0.30   0.94    1  278    2  43.5  41.4 1024.9 -9.9 -9.999 -99.9 -99.99 -9.99
2019/02/22 04:12 EST   -0.33   0.91    0  272    1  43.7  41.4 1024.8 -9.9 -9.999 -99.9 -99.99 -9.99
2019/02/22 04:18 EST   -0.36   0.87    0  243    2  43.7  41.4 1024.9 -9.9 -9.999 -99.9 -99.99 -9.99
2019/02/22 04:24 EST   -0.38   0.84    1  215    1  43.5  41.4 1025.0 -9.9 -9.999 -99.9 -99.99 -9.99
2019/02/22 04:30 EST   -0.40   0.81    0  129    2  43.0  41.4 1024.7 -9.9 -9.999 -99.9 -99.99 -9.99
2019/02/22 04:36 EST   -0.41   0.78    1  172    1  43.0  41.4 1024.8 -9.9 -9.999 -99.9 -99.99 -9.99
2019/02/22 04:42 EST   -0.42   0.76    1  182    2  43.0  41.4 1025.2 -9.9 -9.999 -99.9 -99.99 -9.99
2019/02/22 04:48 EST   -0.42   0.74    0  146    0  42.6  41.4 1025.4 -9.9 -9.999 -99.9 -99.99 -9.99
2019/02/22 04:54 EST   -0.42   0.71    0  204    0  42.4  41.4 1025.5 -9.9 -9.999 -99.9 -99.99 -9.99
2019/02/22 05:00 EST   -0.41   0.69    0  204    1  42.6  41.4 1025.6 -9.9 -9.999 -99.9 -99.99 -9.99
2019/02/22 05:06 EST   -0.39   0.67    0   20    0  42.8  41.4 1025.5 -9.9 -9.999 -99.9 -99.99 -9.99
2019/02/22 05:12 EST   -0.37   0.65    0   42    2  43.0  41.2 1025.6 -9.9 -9.999 -99.9 -99.99 -9.99
2019/02/22 05:18 EST   -0.34   0.64    1  157    1  43.3  41.2 1025.8 -9.9 -9.999 -99.9 -99.99 -9.99
2019/02/22 05:24 EST   -0.30   0.64    0  144    0  43.5  41.2 1025.9 -9.9 -9.999 -99.9 -99.99 -9.99
2019/02/22 05:30 EST   -0.26   0.63    0  144    1  43.3  41.2 1025.9 -9.9 -9.999 -99.9 -99.99 -9.99
2019/02/22 05:36 EST   -0.21   0.63    1  177    1  43.2  41.2 1025.9 -9.9 -9.999 -99.9 -99.99 -9.99
2019/02/22 05:42 EST   -0.15   0.64    1  217    3  42.8  41.2 1026.0 -9.9 -9.999 -99.9 -99.99 -9.99
2019/02/22 05:48 EST   -0.09   0.66    2  330    5  43.0  41.2 1026.1 -9.9 -9.999 -99.9 -99.99 -9.99
2019/02/22 05:54 EST   -0.02   0.70    4    9    6  43.7  41.2 1026.1 -9.9 -9.999 -99.9 -99.99 -9.99
2019/02/22 06:00 EST    0.06   0.76    4   16    8  47.1  41.2 1026.1 -9.9 -9.999 -99.9 -99.99 -9.99
2019/02/22 06:06 EST    0.15   0.82    4    1    7  47.8  41.2 1026.1 -9.9 -9.999 -99.9 -99.99 -9.99
2019/02/22 06:12 EST    0.24   0.90    3   15    7  48.0  41.2 1026.3 -9.9 -9.999 -99.9 -99.99 -9.99
2019/02/22 06:18 EST    0.33   1.00    4   13    8  48.2  41.2 1026.6 -9.9 -9.999 -99.9 -99.99 -9.99
2019/02/22 06:24 EST    0.43   1.10    3   11    7  48.2  41.2 1026.7 -9.9 -9.999 -99.9 -99.99 -9.99
2019/02/22 06:30 EST    0.53   1.20    3   12    8  48.2  41.2 1026.9 -9.9 -9.999 -99.9 -99.99 -9.99
2019/02/22 06:36 EST    0.64   1.31    3    4    6  48.0  41.2 1026.9 -9.9 -9.999 -99.9 -99.99 -9.99
2019/02/22 06:42 EST    0.75   1.42    4  360    9  48.0  41.2 1027.2 -9.9 -9.999 -99.9 -99.99 -9.99
2019/02/22 06:48 EST    0.86   1.54    5    2    7  47.8  41.2 1027.2 -9.9 -9.999 -99.9 -99.99 -9.99
2019/02/22 06:54 EST    0.98   1.66    4    6    6  47.8  41.2 1027.3 -9.9 -9.999 -99.9 -99.99 -9.99
2019/02/22 07:00 EST    1.09   1.78    5  360    8  47.7  41.2 1027.3 -9.9 -9.999 -99.9 -99.99 -9.99
2019/02/22 07:06 EST    1.21   1.91    3  352    8  47.7  41.0 1027.2 -9.9 -9.999 -99.9 -99.99 -9.99
2019/02/22 07:12 EST    1.32   2.03    3   22    5  47.7  41.0 1027.5 -9.9 -9.999 -99.9 -99.99 -9.99
2019/02/22 07:18 EST    1.44   2.14    3   31    4  47.5  41.0 1027.5 -9.9 -9.999 -99.9 -99.99 -9.99
2019/02/22 07:24 EST    1.55   2.26    4  351    8  47.5  41.0 1027.8 -9.9 -9.999 -99.9 -99.99 -9.99
2019/02/22 07:30 EST    1.66   2.37    4    2    6  47.3  41.0 1027.9 -9.9 -9.999 -99.9 -99.99 -9.99
2019/02/22 07:36 EST    1.77   2.48    2   21    5  47.3  41.0 1028.1 -9.9 -9.999 -99.9 -99.99 -9.99
2019/02/22 07:42 EST    1.87   2.59    4  344    5  47.3  41.0 1028.3 -9.9 -9.999 -99.9 -99.99 -9.99
2019/02/22 07:48 EST    1.97   2.68    2   13    6  47.3  41.0 1028.3 -9.9 -9.999 -99.9 -99.99 -9.99
2019/02/22 07:54 EST    2.07   2.77    4   25    7  47.3  41.0 1028.5 -9.9 -9.999 -99.9 -99.99 -9.99
2019/02/22 08:00 EST    2.17   2.85    4   30    7  47.3  41.0 1028.4 -9.9 -9.999 -99.9 -99.99 -9.99
2019/02/22 08:06 EST    2.26   2.94    3   25    5  47.3  41.0 1028.7 -9.9 -9.999 -99.9 -99.99 -9.99
2019/02/22 08:12 EST    2.35   3.01    4    8    7  47.1  41.0 1028.9 -9.9 -9.999 -99.9 -99.99 -9.99
2019/02/22 08:18 EST    2.43   3.08    3   32    7  47.3  41.0 1028.8 -9.9 -9.999 -99.9 -99.99 -9.99
2019/02/22 08:24 EST    2.51   3.15    4   18    6  47.3  41.0 1028.9 -9.9 -9.999 -99.9 -99.99 -9.99
2019/02/22 08:30 EST    2.58   3.21    2   11    5  47.1  41.0 1029.3 -9.9 -9.999 -99.9 -99.99 -9.99
2019/02/22 08:36 EST    2.65   3.27    2   57    7  47.1  41.2 1028.9 -9.9 -9.999 -99.9 -99.99 -9.99
2019/02/22 08:42 EST    2.71   3.33    5   26    6  47.1  41.2 1028.9 -9.9 -9.999 -99.9 -99.99 -9.99
2019/02/22 08:48 EST    2.77   3.38    4   32    6  47.1  41.2 1028.9 -9.9 -9.999 -99.9 -99.99 -9.99
2019/02/22 08:54 EST    2.83   3.43    3   10    8  47.1  41.2 1029.2 -9.9 -9.999 -99.9 -99.99 -9.99
2019/02/22 09:00 EST    2.88   3.47    3    8    7  47.1  41.2 1029.3 -9.9 -9.999 -99.9 -99.99 -9.99
2019/02/22 09:06 EST    2.93 -99.99 -999 -999 -999 -99.9 -99.9 -999.9 -9.9 -9.999 -99.9 -99.99 -9.99
2019/02/22 09:12 EST    2.97 -99.99 -999 -999 -999 -99.9 -99.9 -999.9 -9.9 -9.999 -99.9 -99.99 -9.99
2019/02/22 09:18 EST    3.01 -99.99 -999 -999 -999 -99.9 -99.9 -999.9 -9.9 -9.999 -99.9 -99.99 -9.99

Revised: 08/08/2018
NOAA / National Ocean Service
Web site owner: Center for Operational Oceanographic Products and Services